<?xml version="1.0" encoding="UTF-8" standalone="no" ?>
<gpx xmlns="http://www.topografix.com/GPX/1/1" xmlns:xsi="http://www.w3.org/2001/XMLSchema-instance" xsi:schemaLocation="http://www.topografix.com/GPX/1/1 http://www.topografix.com/GPX/1/1/gpx.xsd" version="1.1" creator="VisuGPX - https://www.visugpx.com">
  <metadata>
    <name>la bastide de denat 81</name>
    <desc><![CDATA[chemin des crêtes très beaux points de vue sur Albi et ces environs ]]></desc>
  </metadata>
  <trk>
    <name><![CDATA[20190311_135944.gpx]]></name>
    <trkseg>
      <trkpt lat="43.86738" lon="2.19164">
        <ele>347</ele>
        <time>2019-03-11T13:01:11Z</time>
      </trkpt>
      <trkpt lat="43.86738" lon="2.19164">
        <ele>347</ele>
        <time>2019-03-11T13:01:12Z</time>
      </trkpt>
      <trkpt lat="43.86735" lon="2.19162">
        <ele>349</ele>
        <time>2019-03-11T13:01:23Z</time>
      </trkpt>
      <trkpt lat="43.86735" lon="2.19162">
        <ele>349</ele>
        <time>2019-03-11T13:01:23Z</time>
      </trkpt>
      <trkpt lat="43.86739" lon="2.19159">
        <ele>355</ele>
        <time>2019-03-11T13:06:47Z</time>
      </trkpt>
      <trkpt lat="43.86739" lon="2.19159">
        <ele>355</ele>
        <time>2019-03-11T13:06:47Z</time>
      </trkpt>
      <trkpt lat="43.86729" lon="2.19156">
        <ele>352</ele>
        <time>2019-03-11T13:07:01Z</time>
      </trkpt>
      <trkpt lat="43.8672" lon="2.19156">
        <ele>351</ele>
        <time>2019-03-11T13:07:12Z</time>
      </trkpt>
      <trkpt lat="43.86711" lon="2.19152">
        <ele>351</ele>
        <time>2019-03-11T13:07:22Z</time>
      </trkpt>
      <trkpt lat="43.86702" lon="2.19148">
        <ele>350</ele>
        <time>2019-03-11T13:07:32Z</time>
      </trkpt>
      <trkpt lat="43.86693" lon="2.19144">
        <ele>351</ele>
        <time>2019-03-11T13:07:42Z</time>
      </trkpt>
      <trkpt lat="43.86684" lon="2.19139">
        <ele>350</ele>
        <time>2019-03-11T13:07:51Z</time>
      </trkpt>
      <trkpt lat="43.86675" lon="2.19137">
        <ele>349</ele>
        <time>2019-03-11T13:07:59Z</time>
      </trkpt>
      <trkpt lat="43.86666" lon="2.19136">
        <ele>346</ele>
        <time>2019-03-11T13:08:06Z</time>
      </trkpt>
      <trkpt lat="43.86657" lon="2.19132">
        <ele>344</ele>
        <time>2019-03-11T13:08:15Z</time>
      </trkpt>
      <trkpt lat="43.86647" lon="2.1913">
        <ele>343</ele>
        <time>2019-03-11T13:08:24Z</time>
      </trkpt>
      <trkpt lat="43.86638" lon="2.19128">
        <ele>341</ele>
        <time>2019-03-11T13:08:32Z</time>
      </trkpt>
      <trkpt lat="43.86629" lon="2.19128">
        <ele>340</ele>
        <time>2019-03-11T13:08:41Z</time>
      </trkpt>
      <trkpt lat="43.86619" lon="2.19131">
        <ele>337</ele>
        <time>2019-03-11T13:08:53Z</time>
      </trkpt>
      <trkpt lat="43.86611" lon="2.19137">
        <ele>337</ele>
        <time>2019-03-11T13:09:04Z</time>
      </trkpt>
      <trkpt lat="43.86602" lon="2.19144">
        <ele>333</ele>
        <time>2019-03-11T13:09:16Z</time>
      </trkpt>
      <trkpt lat="43.86593" lon="2.1915">
        <ele>333</ele>
        <time>2019-03-11T13:09:25Z</time>
      </trkpt>
      <trkpt lat="43.86585" lon="2.19156">
        <ele>331</ele>
        <time>2019-03-11T13:09:35Z</time>
      </trkpt>
      <trkpt lat="43.86575" lon="2.19158">
        <ele>328</ele>
        <time>2019-03-11T13:09:47Z</time>
      </trkpt>
      <trkpt lat="43.86565" lon="2.19159">
        <ele>327</ele>
        <time>2019-03-11T13:09:57Z</time>
      </trkpt>
      <trkpt lat="43.86556" lon="2.19158">
        <ele>325</ele>
        <time>2019-03-11T13:10:05Z</time>
      </trkpt>
      <trkpt lat="43.86546" lon="2.1916">
        <ele>324</ele>
        <time>2019-03-11T13:10:13Z</time>
      </trkpt>
      <trkpt lat="43.86537" lon="2.19161">
        <ele>322</ele>
        <time>2019-03-11T13:10:21Z</time>
      </trkpt>
      <trkpt lat="43.86528" lon="2.19162">
        <ele>320</ele>
        <time>2019-03-11T13:10:29Z</time>
      </trkpt>
      <trkpt lat="43.86519" lon="2.19164">
        <ele>320</ele>
        <time>2019-03-11T13:10:38Z</time>
      </trkpt>
      <trkpt lat="43.86509" lon="2.19166">
        <ele>319</ele>
        <time>2019-03-11T13:10:46Z</time>
      </trkpt>
      <trkpt lat="43.86499" lon="2.19165">
        <ele>319</ele>
        <time>2019-03-11T13:10:53Z</time>
      </trkpt>
      <trkpt lat="43.86489" lon="2.19162">
        <ele>317</ele>
        <time>2019-03-11T13:11:02Z</time>
      </trkpt>
      <trkpt lat="43.8648" lon="2.19157">
        <ele>317</ele>
        <time>2019-03-11T13:11:09Z</time>
      </trkpt>
      <trkpt lat="43.8647" lon="2.19153">
        <ele>316</ele>
        <time>2019-03-11T13:11:17Z</time>
      </trkpt>
      <trkpt lat="43.86462" lon="2.19149">
        <ele>316</ele>
        <time>2019-03-11T13:11:25Z</time>
      </trkpt>
      <trkpt lat="43.86453" lon="2.19144">
        <ele>317</ele>
        <time>2019-03-11T13:11:34Z</time>
      </trkpt>
      <trkpt lat="43.86443" lon="2.19142">
        <ele>316</ele>
        <time>2019-03-11T13:11:42Z</time>
      </trkpt>
      <trkpt lat="43.86434" lon="2.1914">
        <ele>315</ele>
        <time>2019-03-11T13:11:50Z</time>
      </trkpt>
      <trkpt lat="43.86424" lon="2.19139">
        <ele>317</ele>
        <time>2019-03-11T13:11:58Z</time>
      </trkpt>
      <trkpt lat="43.86415" lon="2.19137">
        <ele>317</ele>
        <time>2019-03-11T13:12:08Z</time>
      </trkpt>
      <trkpt lat="43.86406" lon="2.19135">
        <ele>317</ele>
        <time>2019-03-11T13:12:17Z</time>
      </trkpt>
      <trkpt lat="43.86396" lon="2.19136">
        <ele>318</ele>
        <time>2019-03-11T13:12:27Z</time>
      </trkpt>
      <trkpt lat="43.86387" lon="2.19139">
        <ele>320</ele>
        <time>2019-03-11T13:12:38Z</time>
      </trkpt>
      <trkpt lat="43.86377" lon="2.19142">
        <ele>321</ele>
        <time>2019-03-11T13:12:48Z</time>
      </trkpt>
      <trkpt lat="43.86367" lon="2.19144">
        <ele>324</ele>
        <time>2019-03-11T13:13:00Z</time>
      </trkpt>
      <trkpt lat="43.86358" lon="2.19146">
        <ele>324</ele>
        <time>2019-03-11T13:13:10Z</time>
      </trkpt>
      <trkpt lat="43.86349" lon="2.19149">
        <ele>324</ele>
        <time>2019-03-11T13:13:19Z</time>
      </trkpt>
      <trkpt lat="43.8634" lon="2.19153">
        <ele>325</ele>
        <time>2019-03-11T13:13:29Z</time>
      </trkpt>
      <trkpt lat="43.8633" lon="2.19155">
        <ele>327</ele>
        <time>2019-03-11T13:13:39Z</time>
      </trkpt>
      <trkpt lat="43.86321" lon="2.19157">
        <ele>327</ele>
        <time>2019-03-11T13:13:47Z</time>
      </trkpt>
      <trkpt lat="43.86311" lon="2.1916">
        <ele>326</ele>
        <time>2019-03-11T13:13:55Z</time>
      </trkpt>
      <trkpt lat="43.86303" lon="2.19167">
        <ele>327</ele>
        <time>2019-03-11T13:14:05Z</time>
      </trkpt>
      <trkpt lat="43.86297" lon="2.19177">
        <ele>328</ele>
        <time>2019-03-11T13:14:14Z</time>
      </trkpt>
      <trkpt lat="43.86293" lon="2.19189">
        <ele>330</ele>
        <time>2019-03-11T13:14:23Z</time>
      </trkpt>
      <trkpt lat="43.86288" lon="2.192">
        <ele>330</ele>
        <time>2019-03-11T13:14:33Z</time>
      </trkpt>
      <trkpt lat="43.86282" lon="2.1921">
        <ele>332</ele>
        <time>2019-03-11T13:14:42Z</time>
      </trkpt>
      <trkpt lat="43.86276" lon="2.1922">
        <ele>332</ele>
        <time>2019-03-11T13:14:51Z</time>
      </trkpt>
      <trkpt lat="43.86271" lon="2.19231">
        <ele>334</ele>
        <time>2019-03-11T13:15:01Z</time>
      </trkpt>
      <trkpt lat="43.86265" lon="2.19242">
        <ele>334</ele>
        <time>2019-03-11T13:15:09Z</time>
      </trkpt>
      <trkpt lat="43.8626" lon="2.19253">
        <ele>334</ele>
        <time>2019-03-11T13:15:18Z</time>
      </trkpt>
      <trkpt lat="43.86254" lon="2.19263">
        <ele>335</ele>
        <time>2019-03-11T13:15:27Z</time>
      </trkpt>
      <trkpt lat="43.86247" lon="2.19274">
        <ele>337</ele>
        <time>2019-03-11T13:15:37Z</time>
      </trkpt>
      <trkpt lat="43.86242" lon="2.19284">
        <ele>337</ele>
        <time>2019-03-11T13:15:47Z</time>
      </trkpt>
      <trkpt lat="43.86243" lon="2.19285">
        <ele>337</ele>
        <time>2019-03-11T13:15:51Z</time>
      </trkpt>
      <trkpt lat="43.86243" lon="2.19285">
        <ele>337</ele>
        <time>2019-03-11T13:15:51Z</time>
      </trkpt>
      <trkpt lat="43.86237" lon="2.19295">
        <ele>338</ele>
        <time>2019-03-11T13:16:04Z</time>
      </trkpt>
      <trkpt lat="43.86231" lon="2.19305">
        <ele>340</ele>
        <time>2019-03-11T13:16:13Z</time>
      </trkpt>
      <trkpt lat="43.86226" lon="2.19316">
        <ele>340</ele>
        <time>2019-03-11T13:16:28Z</time>
      </trkpt>
      <trkpt lat="43.86219" lon="2.19326">
        <ele>341</ele>
        <time>2019-03-11T13:16:36Z</time>
      </trkpt>
      <trkpt lat="43.86213" lon="2.19336">
        <ele>343</ele>
        <time>2019-03-11T13:16:44Z</time>
      </trkpt>
      <trkpt lat="43.86209" lon="2.19348">
        <ele>344</ele>
        <time>2019-03-11T13:16:53Z</time>
      </trkpt>
      <trkpt lat="43.86203" lon="2.19359">
        <ele>345</ele>
        <time>2019-03-11T13:17:03Z</time>
      </trkpt>
      <trkpt lat="43.86198" lon="2.1937">
        <ele>347</ele>
        <time>2019-03-11T13:17:12Z</time>
      </trkpt>
      <trkpt lat="43.86193" lon="2.19382">
        <ele>346</ele>
        <time>2019-03-11T13:17:21Z</time>
      </trkpt>
      <trkpt lat="43.86188" lon="2.19394">
        <ele>349</ele>
        <time>2019-03-11T13:17:29Z</time>
      </trkpt>
      <trkpt lat="43.86183" lon="2.19405">
        <ele>349</ele>
        <time>2019-03-11T13:17:38Z</time>
      </trkpt>
      <trkpt lat="43.86178" lon="2.19415">
        <ele>350</ele>
        <time>2019-03-11T13:17:47Z</time>
      </trkpt>
      <trkpt lat="43.86174" lon="2.19426">
        <ele>350</ele>
        <time>2019-03-11T13:17:55Z</time>
      </trkpt>
      <trkpt lat="43.8617" lon="2.19438">
        <ele>351</ele>
        <time>2019-03-11T13:18:06Z</time>
      </trkpt>
      <trkpt lat="43.86166" lon="2.1945">
        <ele>353</ele>
        <time>2019-03-11T13:18:15Z</time>
      </trkpt>
      <trkpt lat="43.86164" lon="2.19462">
        <ele>354</ele>
        <time>2019-03-11T13:18:24Z</time>
      </trkpt>
      <trkpt lat="43.86163" lon="2.19475">
        <ele>353</ele>
        <time>2019-03-11T13:18:33Z</time>
      </trkpt>
      <trkpt lat="43.8616" lon="2.19488">
        <ele>355</ele>
        <time>2019-03-11T13:18:42Z</time>
      </trkpt>
      <trkpt lat="43.86156" lon="2.195">
        <ele>355</ele>
        <time>2019-03-11T13:18:50Z</time>
      </trkpt>
      <trkpt lat="43.86155" lon="2.19514">
        <ele>354</ele>
        <time>2019-03-11T13:19:00Z</time>
      </trkpt>
      <trkpt lat="43.86155" lon="2.19515">
        <ele>354</ele>
        <time>2019-03-11T13:19:01Z</time>
      </trkpt>
      <trkpt lat="43.86153" lon="2.19528">
        <ele>354</ele>
        <time>2019-03-11T13:19:10Z</time>
      </trkpt>
      <trkpt lat="43.86153" lon="2.19541">
        <ele>354</ele>
        <time>2019-03-11T13:19:20Z</time>
      </trkpt>
      <trkpt lat="43.86148" lon="2.19551">
        <ele>353</ele>
        <time>2019-03-11T13:19:28Z</time>
      </trkpt>
      <trkpt lat="43.86145" lon="2.19563">
        <ele>354</ele>
        <time>2019-03-11T13:19:39Z</time>
      </trkpt>
      <trkpt lat="43.86145" lon="2.19563">
        <ele>354</ele>
        <time>2019-03-11T13:19:39Z</time>
      </trkpt>
      <trkpt lat="43.86144" lon="2.19575">
        <ele>353</ele>
        <time>2019-03-11T13:19:53Z</time>
      </trkpt>
      <trkpt lat="43.86142" lon="2.19589">
        <ele>353</ele>
        <time>2019-03-11T13:20:01Z</time>
      </trkpt>
      <trkpt lat="43.86142" lon="2.19603">
        <ele>353</ele>
        <time>2019-03-11T13:20:09Z</time>
      </trkpt>
      <trkpt lat="43.86142" lon="2.19616">
        <ele>353</ele>
        <time>2019-03-11T13:20:17Z</time>
      </trkpt>
      <trkpt lat="43.86141" lon="2.1963">
        <ele>354</ele>
        <time>2019-03-11T13:20:26Z</time>
      </trkpt>
      <trkpt lat="43.86144" lon="2.19643">
        <ele>354</ele>
        <time>2019-03-11T13:20:34Z</time>
      </trkpt>
      <trkpt lat="43.86145" lon="2.19657">
        <ele>355</ele>
        <time>2019-03-11T13:20:43Z</time>
      </trkpt>
      <trkpt lat="43.86149" lon="2.19669">
        <ele>355</ele>
        <time>2019-03-11T13:20:51Z</time>
      </trkpt>
      <trkpt lat="43.86154" lon="2.1968">
        <ele>355</ele>
        <time>2019-03-11T13:20:59Z</time>
      </trkpt>
      <trkpt lat="43.86158" lon="2.19692">
        <ele>355</ele>
        <time>2019-03-11T13:21:07Z</time>
      </trkpt>
      <trkpt lat="43.86162" lon="2.19703">
        <ele>356</ele>
        <time>2019-03-11T13:21:15Z</time>
      </trkpt>
      <trkpt lat="43.86167" lon="2.19715">
        <ele>355</ele>
        <time>2019-03-11T13:21:23Z</time>
      </trkpt>
      <trkpt lat="43.86171" lon="2.19726">
        <ele>354</ele>
        <time>2019-03-11T13:21:31Z</time>
      </trkpt>
      <trkpt lat="43.86176" lon="2.19738">
        <ele>353</ele>
        <time>2019-03-11T13:21:40Z</time>
      </trkpt>
      <trkpt lat="43.86179" lon="2.1975">
        <ele>352</ele>
        <time>2019-03-11T13:21:48Z</time>
      </trkpt>
      <trkpt lat="43.86181" lon="2.19763">
        <ele>351</ele>
        <time>2019-03-11T13:21:56Z</time>
      </trkpt>
      <trkpt lat="43.86179" lon="2.19775">
        <ele>350</ele>
        <time>2019-03-11T13:22:04Z</time>
      </trkpt>
      <trkpt lat="43.86179" lon="2.19782">
        <ele>350</ele>
        <time>2019-03-11T13:22:14Z</time>
      </trkpt>
      <trkpt lat="43.86179" lon="2.19782">
        <ele>350</ele>
        <time>2019-03-11T13:22:14Z</time>
      </trkpt>
      <trkpt lat="43.86176" lon="2.19796">
        <ele>350</ele>
        <time>2019-03-11T13:22:25Z</time>
      </trkpt>
      <trkpt lat="43.86174" lon="2.1981">
        <ele>350</ele>
        <time>2019-03-11T13:22:30Z</time>
      </trkpt>
      <trkpt lat="43.86173" lon="2.19824">
        <ele>348</ele>
        <time>2019-03-11T13:22:38Z</time>
      </trkpt>
      <trkpt lat="43.86176" lon="2.19838">
        <ele>348</ele>
        <time>2019-03-11T13:22:46Z</time>
      </trkpt>
      <trkpt lat="43.8618" lon="2.1985">
        <ele>347</ele>
        <time>2019-03-11T13:22:54Z</time>
      </trkpt>
      <trkpt lat="43.86184" lon="2.19862">
        <ele>346</ele>
        <time>2019-03-11T13:23:02Z</time>
      </trkpt>
      <trkpt lat="43.86188" lon="2.19874">
        <ele>347</ele>
        <time>2019-03-11T13:23:10Z</time>
      </trkpt>
      <trkpt lat="43.86192" lon="2.19886">
        <ele>346</ele>
        <time>2019-03-11T13:23:20Z</time>
      </trkpt>
      <trkpt lat="43.86196" lon="2.19898">
        <ele>345</ele>
        <time>2019-03-11T13:23:28Z</time>
      </trkpt>
      <trkpt lat="43.862" lon="2.19911">
        <ele>345</ele>
        <time>2019-03-11T13:23:36Z</time>
      </trkpt>
      <trkpt lat="43.86205" lon="2.19923">
        <ele>346</ele>
        <time>2019-03-11T13:23:44Z</time>
      </trkpt>
      <trkpt lat="43.86208" lon="2.19936">
        <ele>345</ele>
        <time>2019-03-11T13:23:54Z</time>
      </trkpt>
      <trkpt lat="43.86213" lon="2.19947">
        <ele>345</ele>
        <time>2019-03-11T13:24:02Z</time>
      </trkpt>
      <trkpt lat="43.86216" lon="2.1996">
        <ele>344</ele>
        <time>2019-03-11T13:24:13Z</time>
      </trkpt>
      <trkpt lat="43.86219" lon="2.19973">
        <ele>344</ele>
        <time>2019-03-11T13:24:21Z</time>
      </trkpt>
      <trkpt lat="43.86223" lon="2.19985">
        <ele>342</ele>
        <time>2019-03-11T13:24:29Z</time>
      </trkpt>
      <trkpt lat="43.86229" lon="2.19996">
        <ele>343</ele>
        <time>2019-03-11T13:24:37Z</time>
      </trkpt>
      <trkpt lat="43.86235" lon="2.20006">
        <ele>344</ele>
        <time>2019-03-11T13:24:44Z</time>
      </trkpt>
      <trkpt lat="43.86242" lon="2.20015">
        <ele>345</ele>
        <time>2019-03-11T13:24:52Z</time>
      </trkpt>
      <trkpt lat="43.86248" lon="2.20025">
        <ele>345</ele>
        <time>2019-03-11T13:25:00Z</time>
      </trkpt>
      <trkpt lat="43.86253" lon="2.20036">
        <ele>345</ele>
        <time>2019-03-11T13:25:08Z</time>
      </trkpt>
      <trkpt lat="43.86257" lon="2.20049">
        <ele>345</ele>
        <time>2019-03-11T13:25:17Z</time>
      </trkpt>
      <trkpt lat="43.86256" lon="2.20064">
        <ele>346</ele>
        <time>2019-03-11T13:25:26Z</time>
      </trkpt>
      <trkpt lat="43.86255" lon="2.20077">
        <ele>347</ele>
        <time>2019-03-11T13:25:36Z</time>
      </trkpt>
      <trkpt lat="43.86252" lon="2.20089">
        <ele>349</ele>
        <time>2019-03-11T13:25:47Z</time>
      </trkpt>
      <trkpt lat="43.86251" lon="2.20103">
        <ele>348</ele>
        <time>2019-03-11T13:25:56Z</time>
      </trkpt>
      <trkpt lat="43.86248" lon="2.20116">
        <ele>348</ele>
        <time>2019-03-11T13:26:04Z</time>
      </trkpt>
      <trkpt lat="43.86245" lon="2.20121">
        <ele>348</ele>
        <time>2019-03-11T13:26:13Z</time>
      </trkpt>
      <trkpt lat="43.86245" lon="2.20121">
        <ele>348</ele>
        <time>2019-03-11T13:26:13Z</time>
      </trkpt>
      <trkpt lat="43.86242" lon="2.20133">
        <ele>347</ele>
        <time>2019-03-11T13:26:32Z</time>
      </trkpt>
      <trkpt lat="43.86239" lon="2.20146">
        <ele>347</ele>
        <time>2019-03-11T13:26:38Z</time>
      </trkpt>
      <trkpt lat="43.86235" lon="2.20159">
        <ele>346</ele>
        <time>2019-03-11T13:26:45Z</time>
      </trkpt>
      <trkpt lat="43.86232" lon="2.20171">
        <ele>346</ele>
        <time>2019-03-11T13:26:54Z</time>
      </trkpt>
      <trkpt lat="43.86231" lon="2.20171">
        <ele>346</ele>
        <time>2019-03-11T13:26:57Z</time>
      </trkpt>
      <trkpt lat="43.86231" lon="2.20171">
        <ele>346</ele>
        <time>2019-03-11T13:26:57Z</time>
      </trkpt>
      <trkpt lat="43.86228" lon="2.20183">
        <ele>344</ele>
        <time>2019-03-11T13:27:06Z</time>
      </trkpt>
      <trkpt lat="43.86223" lon="2.20196">
        <ele>344</ele>
        <time>2019-03-11T13:27:13Z</time>
      </trkpt>
      <trkpt lat="43.86218" lon="2.20208">
        <ele>345</ele>
        <time>2019-03-11T13:27:17Z</time>
      </trkpt>
      <trkpt lat="43.86214" lon="2.20219">
        <ele>343</ele>
        <time>2019-03-11T13:27:24Z</time>
      </trkpt>
      <trkpt lat="43.86208" lon="2.2023">
        <ele>342</ele>
        <time>2019-03-11T13:27:32Z</time>
      </trkpt>
      <trkpt lat="43.86203" lon="2.20242">
        <ele>342</ele>
        <time>2019-03-11T13:27:39Z</time>
      </trkpt>
      <trkpt lat="43.86199" lon="2.20254">
        <ele>342</ele>
        <time>2019-03-11T13:27:45Z</time>
      </trkpt>
      <trkpt lat="43.86197" lon="2.20267">
        <ele>341</ele>
        <time>2019-03-11T13:27:52Z</time>
      </trkpt>
      <trkpt lat="43.86194" lon="2.2028">
        <ele>339</ele>
        <time>2019-03-11T13:28:01Z</time>
      </trkpt>
      <trkpt lat="43.86191" lon="2.20292">
        <ele>338</ele>
        <time>2019-03-11T13:28:09Z</time>
      </trkpt>
      <trkpt lat="43.86187" lon="2.20305">
        <ele>337</ele>
        <time>2019-03-11T13:28:17Z</time>
      </trkpt>
      <trkpt lat="43.86185" lon="2.20317">
        <ele>338</ele>
        <time>2019-03-11T13:28:26Z</time>
      </trkpt>
      <trkpt lat="43.86183" lon="2.2033">
        <ele>336</ele>
        <time>2019-03-11T13:28:35Z</time>
      </trkpt>
      <trkpt lat="43.86181" lon="2.20343">
        <ele>335</ele>
        <time>2019-03-11T13:28:46Z</time>
      </trkpt>
      <trkpt lat="43.86179" lon="2.20355">
        <ele>335</ele>
        <time>2019-03-11T13:28:55Z</time>
      </trkpt>
      <trkpt lat="43.86178" lon="2.20368">
        <ele>335</ele>
        <time>2019-03-11T13:29:04Z</time>
      </trkpt>
      <trkpt lat="43.86177" lon="2.20382">
        <ele>334</ele>
        <time>2019-03-11T13:29:14Z</time>
      </trkpt>
      <trkpt lat="43.86176" lon="2.20394">
        <ele>334</ele>
        <time>2019-03-11T13:29:23Z</time>
      </trkpt>
      <trkpt lat="43.86173" lon="2.20406">
        <ele>334</ele>
        <time>2019-03-11T13:29:32Z</time>
      </trkpt>
      <trkpt lat="43.86168" lon="2.20417">
        <ele>335</ele>
        <time>2019-03-11T13:29:41Z</time>
      </trkpt>
      <trkpt lat="43.8616" lon="2.20426">
        <ele>335</ele>
        <time>2019-03-11T13:29:50Z</time>
      </trkpt>
      <trkpt lat="43.86152" lon="2.20434">
        <ele>337</ele>
        <time>2019-03-11T13:30:00Z</time>
      </trkpt>
      <trkpt lat="43.86145" lon="2.20441">
        <ele>337</ele>
        <time>2019-03-11T13:30:08Z</time>
      </trkpt>
      <trkpt lat="43.86137" lon="2.20447">
        <ele>337</ele>
        <time>2019-03-11T13:30:16Z</time>
      </trkpt>
      <trkpt lat="43.8613" lon="2.20457">
        <ele>337</ele>
        <time>2019-03-11T13:30:26Z</time>
      </trkpt>
      <trkpt lat="43.86122" lon="2.20466">
        <ele>337</ele>
        <time>2019-03-11T13:30:35Z</time>
      </trkpt>
      <trkpt lat="43.86114" lon="2.20472">
        <ele>336</ele>
        <time>2019-03-11T13:30:44Z</time>
      </trkpt>
      <trkpt lat="43.86107" lon="2.20482">
        <ele>337</ele>
        <time>2019-03-11T13:30:52Z</time>
      </trkpt>
      <trkpt lat="43.861" lon="2.20491">
        <ele>338</ele>
        <time>2019-03-11T13:31:02Z</time>
      </trkpt>
      <trkpt lat="43.86093" lon="2.205">
        <ele>338</ele>
        <time>2019-03-11T13:31:12Z</time>
      </trkpt>
      <trkpt lat="43.86086" lon="2.20509">
        <ele>338</ele>
        <time>2019-03-11T13:31:23Z</time>
      </trkpt>
      <trkpt lat="43.86078" lon="2.20518">
        <ele>337</ele>
        <time>2019-03-11T13:31:31Z</time>
      </trkpt>
      <trkpt lat="43.86071" lon="2.20528">
        <ele>338</ele>
        <time>2019-03-11T13:31:39Z</time>
      </trkpt>
      <trkpt lat="43.86065" lon="2.20538">
        <ele>338</ele>
        <time>2019-03-11T13:31:47Z</time>
      </trkpt>
      <trkpt lat="43.86059" lon="2.20548">
        <ele>337</ele>
        <time>2019-03-11T13:31:57Z</time>
      </trkpt>
      <trkpt lat="43.86053" lon="2.20558">
        <ele>338</ele>
        <time>2019-03-11T13:32:05Z</time>
      </trkpt>
      <trkpt lat="43.86047" lon="2.20568">
        <ele>339</ele>
        <time>2019-03-11T13:32:14Z</time>
      </trkpt>
      <trkpt lat="43.86041" lon="2.20579">
        <ele>339</ele>
        <time>2019-03-11T13:32:23Z</time>
      </trkpt>
      <trkpt lat="43.86034" lon="2.20589">
        <ele>339</ele>
        <time>2019-03-11T13:32:32Z</time>
      </trkpt>
      <trkpt lat="43.86028" lon="2.20597">
        <ele>339</ele>
        <time>2019-03-11T13:32:41Z</time>
      </trkpt>
      <trkpt lat="43.86023" lon="2.20608">
        <ele>339</ele>
        <time>2019-03-11T13:32:52Z</time>
      </trkpt>
      <trkpt lat="43.86017" lon="2.20618">
        <ele>340</ele>
        <time>2019-03-11T13:33:02Z</time>
      </trkpt>
      <trkpt lat="43.8601" lon="2.20628">
        <ele>339</ele>
        <time>2019-03-11T13:33:12Z</time>
      </trkpt>
      <trkpt lat="43.86003" lon="2.20638">
        <ele>339</ele>
        <time>2019-03-11T13:33:21Z</time>
      </trkpt>
      <trkpt lat="43.85997" lon="2.20648">
        <ele>340</ele>
        <time>2019-03-11T13:33:30Z</time>
      </trkpt>
      <trkpt lat="43.85991" lon="2.20657">
        <ele>340</ele>
        <time>2019-03-11T13:33:37Z</time>
      </trkpt>
      <trkpt lat="43.85985" lon="2.20668">
        <ele>338</ele>
        <time>2019-03-11T13:33:48Z</time>
      </trkpt>
      <trkpt lat="43.85978" lon="2.20677">
        <ele>338</ele>
        <time>2019-03-11T13:33:56Z</time>
      </trkpt>
      <trkpt lat="43.85972" lon="2.20686">
        <ele>339</ele>
        <time>2019-03-11T13:34:05Z</time>
      </trkpt>
      <trkpt lat="43.85965" lon="2.20696">
        <ele>339</ele>
        <time>2019-03-11T13:34:13Z</time>
      </trkpt>
      <trkpt lat="43.85959" lon="2.20706">
        <ele>339</ele>
        <time>2019-03-11T13:34:21Z</time>
      </trkpt>
      <trkpt lat="43.85953" lon="2.20716">
        <ele>338</ele>
        <time>2019-03-11T13:34:29Z</time>
      </trkpt>
      <trkpt lat="43.85947" lon="2.20726">
        <ele>339</ele>
        <time>2019-03-11T13:34:37Z</time>
      </trkpt>
      <trkpt lat="43.85941" lon="2.20737">
        <ele>339</ele>
        <time>2019-03-11T13:34:48Z</time>
      </trkpt>
      <trkpt lat="43.85936" lon="2.20748">
        <ele>338</ele>
        <time>2019-03-11T13:34:56Z</time>
      </trkpt>
      <trkpt lat="43.8593" lon="2.20758">
        <ele>336</ele>
        <time>2019-03-11T13:35:05Z</time>
      </trkpt>
      <trkpt lat="43.85923" lon="2.20768">
        <ele>336</ele>
        <time>2019-03-11T13:35:13Z</time>
      </trkpt>
      <trkpt lat="43.85917" lon="2.20777">
        <ele>335</ele>
        <time>2019-03-11T13:35:21Z</time>
      </trkpt>
      <trkpt lat="43.85912" lon="2.20788">
        <ele>334</ele>
        <time>2019-03-11T13:35:31Z</time>
      </trkpt>
      <trkpt lat="43.85905" lon="2.20797">
        <ele>334</ele>
        <time>2019-03-11T13:35:42Z</time>
      </trkpt>
      <trkpt lat="43.85898" lon="2.20808">
        <ele>334</ele>
        <time>2019-03-11T13:35:51Z</time>
      </trkpt>
      <trkpt lat="43.85892" lon="2.20817">
        <ele>334</ele>
        <time>2019-03-11T13:35:59Z</time>
      </trkpt>
      <trkpt lat="43.85889" lon="2.2083">
        <ele>333</ele>
        <time>2019-03-11T13:36:08Z</time>
      </trkpt>
      <trkpt lat="43.85894" lon="2.20841">
        <ele>334</ele>
        <time>2019-03-11T13:36:16Z</time>
      </trkpt>
      <trkpt lat="43.859" lon="2.20851">
        <ele>334</ele>
        <time>2019-03-11T13:36:25Z</time>
      </trkpt>
      <trkpt lat="43.85907" lon="2.20861">
        <ele>333</ele>
        <time>2019-03-11T13:36:34Z</time>
      </trkpt>
      <trkpt lat="43.85914" lon="2.2087">
        <ele>334</ele>
        <time>2019-03-11T13:36:43Z</time>
      </trkpt>
      <trkpt lat="43.8592" lon="2.20881">
        <ele>334</ele>
        <time>2019-03-11T13:36:53Z</time>
      </trkpt>
      <trkpt lat="43.85916" lon="2.20883">
        <ele>338</ele>
        <time>2019-03-11T13:37:07Z</time>
      </trkpt>
      <trkpt lat="43.85916" lon="2.20883">
        <ele>338</ele>
        <time>2019-03-11T13:37:07Z</time>
      </trkpt>
      <trkpt lat="43.85923" lon="2.20893">
        <ele>336</ele>
        <time>2019-03-11T13:37:17Z</time>
      </trkpt>
      <trkpt lat="43.85927" lon="2.20904">
        <ele>335</ele>
        <time>2019-03-11T13:37:25Z</time>
      </trkpt>
      <trkpt lat="43.85931" lon="2.20917">
        <ele>334</ele>
        <time>2019-03-11T13:37:33Z</time>
      </trkpt>
      <trkpt lat="43.85933" lon="2.2093">
        <ele>334</ele>
        <time>2019-03-11T13:37:40Z</time>
      </trkpt>
      <trkpt lat="43.85937" lon="2.20942">
        <ele>333</ele>
        <time>2019-03-11T13:37:47Z</time>
      </trkpt>
      <trkpt lat="43.85942" lon="2.20954">
        <ele>333</ele>
        <time>2019-03-11T13:37:54Z</time>
      </trkpt>
      <trkpt lat="43.85945" lon="2.20966">
        <ele>332</ele>
        <time>2019-03-11T13:38:01Z</time>
      </trkpt>
      <trkpt lat="43.85949" lon="2.20979">
        <ele>331</ele>
        <time>2019-03-11T13:38:09Z</time>
      </trkpt>
      <trkpt lat="43.85952" lon="2.20991">
        <ele>331</ele>
        <time>2019-03-11T13:38:17Z</time>
      </trkpt>
      <trkpt lat="43.85955" lon="2.21004">
        <ele>330</ele>
        <time>2019-03-11T13:38:25Z</time>
      </trkpt>
      <trkpt lat="43.85959" lon="2.21015">
        <ele>331</ele>
        <time>2019-03-11T13:38:32Z</time>
      </trkpt>
      <trkpt lat="43.85961" lon="2.21028">
        <ele>331</ele>
        <time>2019-03-11T13:38:40Z</time>
      </trkpt>
      <trkpt lat="43.85965" lon="2.2104">
        <ele>331</ele>
        <time>2019-03-11T13:38:49Z</time>
      </trkpt>
      <trkpt lat="43.85969" lon="2.21053">
        <ele>331</ele>
        <time>2019-03-11T13:38:58Z</time>
      </trkpt>
      <trkpt lat="43.85972" lon="2.21066">
        <ele>332</ele>
        <time>2019-03-11T13:39:07Z</time>
      </trkpt>
      <trkpt lat="43.85975" lon="2.21077">
        <ele>332</ele>
        <time>2019-03-11T13:39:18Z</time>
      </trkpt>
      <trkpt lat="43.85979" lon="2.2109">
        <ele>331</ele>
        <time>2019-03-11T13:39:28Z</time>
      </trkpt>
      <trkpt lat="43.85983" lon="2.21101">
        <ele>331</ele>
        <time>2019-03-11T13:39:37Z</time>
      </trkpt>
      <trkpt lat="43.85988" lon="2.21112">
        <ele>331</ele>
        <time>2019-03-11T13:39:46Z</time>
      </trkpt>
      <trkpt lat="43.85995" lon="2.21122">
        <ele>330</ele>
        <time>2019-03-11T13:39:54Z</time>
      </trkpt>
      <trkpt lat="43.86002" lon="2.21131">
        <ele>331</ele>
        <time>2019-03-11T13:40:04Z</time>
      </trkpt>
      <trkpt lat="43.86009" lon="2.2114">
        <ele>331</ele>
        <time>2019-03-11T13:40:13Z</time>
      </trkpt>
      <trkpt lat="43.86017" lon="2.21146">
        <ele>331</ele>
        <time>2019-03-11T13:40:21Z</time>
      </trkpt>
      <trkpt lat="43.86025" lon="2.21153">
        <ele>330</ele>
        <time>2019-03-11T13:40:29Z</time>
      </trkpt>
      <trkpt lat="43.86033" lon="2.21159">
        <ele>331</ele>
        <time>2019-03-11T13:40:38Z</time>
      </trkpt>
      <trkpt lat="43.86041" lon="2.21167">
        <ele>331</ele>
        <time>2019-03-11T13:40:46Z</time>
      </trkpt>
      <trkpt lat="43.86049" lon="2.21176">
        <ele>330</ele>
        <time>2019-03-11T13:40:55Z</time>
      </trkpt>
      <trkpt lat="43.86057" lon="2.21184">
        <ele>330</ele>
        <time>2019-03-11T13:41:04Z</time>
      </trkpt>
      <trkpt lat="43.86064" lon="2.21193">
        <ele>330</ele>
        <time>2019-03-11T13:41:12Z</time>
      </trkpt>
      <trkpt lat="43.86072" lon="2.212">
        <ele>329</ele>
        <time>2019-03-11T13:41:20Z</time>
      </trkpt>
      <trkpt lat="43.8608" lon="2.21207">
        <ele>329</ele>
        <time>2019-03-11T13:41:29Z</time>
      </trkpt>
      <trkpt lat="43.86087" lon="2.21217">
        <ele>329</ele>
        <time>2019-03-11T13:41:38Z</time>
      </trkpt>
      <trkpt lat="43.86095" lon="2.21225">
        <ele>329</ele>
        <time>2019-03-11T13:41:47Z</time>
      </trkpt>
      <trkpt lat="43.86103" lon="2.21233">
        <ele>330</ele>
        <time>2019-03-11T13:41:56Z</time>
      </trkpt>
      <trkpt lat="43.86111" lon="2.2124">
        <ele>331</ele>
        <time>2019-03-11T13:42:04Z</time>
      </trkpt>
      <trkpt lat="43.86116" lon="2.2125">
        <ele>330</ele>
        <time>2019-03-11T13:42:12Z</time>
      </trkpt>
      <trkpt lat="43.86124" lon="2.21258">
        <ele>330</ele>
        <time>2019-03-11T13:42:20Z</time>
      </trkpt>
      <trkpt lat="43.86131" lon="2.21266">
        <ele>329</ele>
        <time>2019-03-11T13:42:28Z</time>
      </trkpt>
      <trkpt lat="43.86139" lon="2.21274">
        <ele>329</ele>
        <time>2019-03-11T13:42:37Z</time>
      </trkpt>
      <trkpt lat="43.86146" lon="2.21283">
        <ele>329</ele>
        <time>2019-03-11T13:42:45Z</time>
      </trkpt>
      <trkpt lat="43.86153" lon="2.21291">
        <ele>328</ele>
        <time>2019-03-11T13:42:52Z</time>
      </trkpt>
      <trkpt lat="43.86161" lon="2.21299">
        <ele>329</ele>
        <time>2019-03-11T13:43:01Z</time>
      </trkpt>
      <trkpt lat="43.86168" lon="2.21307">
        <ele>330</ele>
        <time>2019-03-11T13:43:10Z</time>
      </trkpt>
      <trkpt lat="43.86176" lon="2.21316">
        <ele>329</ele>
        <time>2019-03-11T13:43:19Z</time>
      </trkpt>
      <trkpt lat="43.86182" lon="2.21326">
        <ele>330</ele>
        <time>2019-03-11T13:43:27Z</time>
      </trkpt>
      <trkpt lat="43.86188" lon="2.21336">
        <ele>329</ele>
        <time>2019-03-11T13:43:36Z</time>
      </trkpt>
      <trkpt lat="43.86194" lon="2.21346">
        <ele>329</ele>
        <time>2019-03-11T13:43:44Z</time>
      </trkpt>
      <trkpt lat="43.86198" lon="2.21358">
        <ele>329</ele>
        <time>2019-03-11T13:43:53Z</time>
      </trkpt>
      <trkpt lat="43.86203" lon="2.2137">
        <ele>332</ele>
        <time>2019-03-11T13:44:02Z</time>
      </trkpt>
      <trkpt lat="43.86208" lon="2.21382">
        <ele>332</ele>
        <time>2019-03-11T13:44:11Z</time>
      </trkpt>
      <trkpt lat="43.86211" lon="2.21394">
        <ele>333</ele>
        <time>2019-03-11T13:44:20Z</time>
      </trkpt>
      <trkpt lat="43.86215" lon="2.21407">
        <ele>332</ele>
        <time>2019-03-11T13:44:30Z</time>
      </trkpt>
      <trkpt lat="43.86221" lon="2.21418">
        <ele>331</ele>
        <time>2019-03-11T13:44:39Z</time>
      </trkpt>
      <trkpt lat="43.86227" lon="2.21429">
        <ele>332</ele>
        <time>2019-03-11T13:44:47Z</time>
      </trkpt>
      <trkpt lat="43.86234" lon="2.21437">
        <ele>331</ele>
        <time>2019-03-11T13:44:55Z</time>
      </trkpt>
      <trkpt lat="43.86239" lon="2.21448">
        <ele>332</ele>
        <time>2019-03-11T13:45:04Z</time>
      </trkpt>
      <trkpt lat="43.86244" lon="2.2146">
        <ele>331</ele>
        <time>2019-03-11T13:45:14Z</time>
      </trkpt>
      <trkpt lat="43.8625" lon="2.21471">
        <ele>331</ele>
        <time>2019-03-11T13:45:22Z</time>
      </trkpt>
      <trkpt lat="43.86256" lon="2.21482">
        <ele>331</ele>
        <time>2019-03-11T13:45:30Z</time>
      </trkpt>
      <trkpt lat="43.86261" lon="2.21493">
        <ele>331</ele>
        <time>2019-03-11T13:45:39Z</time>
      </trkpt>
      <trkpt lat="43.86266" lon="2.21503">
        <ele>330</ele>
        <time>2019-03-11T13:45:47Z</time>
      </trkpt>
      <trkpt lat="43.86272" lon="2.21514">
        <ele>332</ele>
        <time>2019-03-11T13:45:55Z</time>
      </trkpt>
      <trkpt lat="43.86278" lon="2.21524">
        <ele>332</ele>
        <time>2019-03-11T13:46:04Z</time>
      </trkpt>
      <trkpt lat="43.86284" lon="2.21534">
        <ele>332</ele>
        <time>2019-03-11T13:46:13Z</time>
      </trkpt>
      <trkpt lat="43.86289" lon="2.21546">
        <ele>333</ele>
        <time>2019-03-11T13:46:21Z</time>
      </trkpt>
      <trkpt lat="43.86295" lon="2.21556">
        <ele>333</ele>
        <time>2019-03-11T13:46:30Z</time>
      </trkpt>
      <trkpt lat="43.863" lon="2.21567">
        <ele>333</ele>
        <time>2019-03-11T13:46:39Z</time>
      </trkpt>
      <trkpt lat="43.86306" lon="2.21577">
        <ele>335</ele>
        <time>2019-03-11T13:46:47Z</time>
      </trkpt>
      <trkpt lat="43.86313" lon="2.21587">
        <ele>335</ele>
        <time>2019-03-11T13:46:57Z</time>
      </trkpt>
      <trkpt lat="43.86319" lon="2.21597">
        <ele>335</ele>
        <time>2019-03-11T13:47:06Z</time>
      </trkpt>
      <trkpt lat="43.86326" lon="2.21607">
        <ele>336</ele>
        <time>2019-03-11T13:47:15Z</time>
      </trkpt>
      <trkpt lat="43.8633" lon="2.21618">
        <ele>336</ele>
        <time>2019-03-11T13:47:24Z</time>
      </trkpt>
      <trkpt lat="43.86335" lon="2.21629">
        <ele>335</ele>
        <time>2019-03-11T13:47:33Z</time>
      </trkpt>
      <trkpt lat="43.86339" lon="2.21641">
        <ele>336</ele>
        <time>2019-03-11T13:47:42Z</time>
      </trkpt>
      <trkpt lat="43.86345" lon="2.21652">
        <ele>336</ele>
        <time>2019-03-11T13:47:53Z</time>
      </trkpt>
      <trkpt lat="43.8635" lon="2.21664">
        <ele>337</ele>
        <time>2019-03-11T13:48:03Z</time>
      </trkpt>
      <trkpt lat="43.86356" lon="2.21674">
        <ele>339</ele>
        <time>2019-03-11T13:48:11Z</time>
      </trkpt>
      <trkpt lat="43.86361" lon="2.21685">
        <ele>339</ele>
        <time>2019-03-11T13:48:19Z</time>
      </trkpt>
      <trkpt lat="43.86366" lon="2.21696">
        <ele>340</ele>
        <time>2019-03-11T13:48:28Z</time>
      </trkpt>
      <trkpt lat="43.86372" lon="2.21706">
        <ele>340</ele>
        <time>2019-03-11T13:48:36Z</time>
      </trkpt>
      <trkpt lat="43.86379" lon="2.21716">
        <ele>341</ele>
        <time>2019-03-11T13:48:46Z</time>
      </trkpt>
      <trkpt lat="43.86388" lon="2.21721">
        <ele>342</ele>
        <time>2019-03-11T13:48:56Z</time>
      </trkpt>
      <trkpt lat="43.86397" lon="2.21725">
        <ele>341</ele>
        <time>2019-03-11T13:49:04Z</time>
      </trkpt>
      <trkpt lat="43.86406" lon="2.21727">
        <ele>342</ele>
        <time>2019-03-11T13:49:12Z</time>
      </trkpt>
      <trkpt lat="43.86417" lon="2.2173">
        <ele>342</ele>
        <time>2019-03-11T13:49:21Z</time>
      </trkpt>
      <trkpt lat="43.86426" lon="2.21731">
        <ele>342</ele>
        <time>2019-03-11T13:49:29Z</time>
      </trkpt>
      <trkpt lat="43.86436" lon="2.21732">
        <ele>342</ele>
        <time>2019-03-11T13:49:38Z</time>
      </trkpt>
      <trkpt lat="43.86441" lon="2.21731">
        <ele>342</ele>
        <time>2019-03-11T13:49:47Z</time>
      </trkpt>
      <trkpt lat="43.86441" lon="2.21731">
        <ele>342</ele>
        <time>2019-03-11T13:49:47Z</time>
      </trkpt>
      <trkpt lat="43.86448" lon="2.21725">
        <ele>343</ele>
        <time>2019-03-11T13:50:14Z</time>
      </trkpt>
      <trkpt lat="43.86448" lon="2.21725">
        <ele>343</ele>
        <time>2019-03-11T13:50:14Z</time>
      </trkpt>
      <trkpt lat="43.86449" lon="2.21713">
        <ele>341</ele>
        <time>2019-03-11T13:50:37Z</time>
      </trkpt>
      <trkpt lat="43.86455" lon="2.21702">
        <ele>340</ele>
        <time>2019-03-11T13:50:46Z</time>
      </trkpt>
      <trkpt lat="43.86461" lon="2.21691">
        <ele>342</ele>
        <time>2019-03-11T13:50:57Z</time>
      </trkpt>
      <trkpt lat="43.86466" lon="2.2168">
        <ele>341</ele>
        <time>2019-03-11T13:51:06Z</time>
      </trkpt>
      <trkpt lat="43.86471" lon="2.21667">
        <ele>342</ele>
        <time>2019-03-11T13:51:16Z</time>
      </trkpt>
      <trkpt lat="43.86474" lon="2.21664">
        <ele>343</ele>
        <time>2019-03-11T13:51:24Z</time>
      </trkpt>
      <trkpt lat="43.86474" lon="2.21664">
        <ele>343</ele>
        <time>2019-03-11T13:51:24Z</time>
      </trkpt>
      <trkpt lat="43.86478" lon="2.21653">
        <ele>344</ele>
        <time>2019-03-11T13:51:49Z</time>
      </trkpt>
      <trkpt lat="43.86482" lon="2.21641">
        <ele>345</ele>
        <time>2019-03-11T13:51:57Z</time>
      </trkpt>
      <trkpt lat="43.86486" lon="2.21629">
        <ele>346</ele>
        <time>2019-03-11T13:52:05Z</time>
      </trkpt>
      <trkpt lat="43.86486" lon="2.21628">
        <ele>345</ele>
        <time>2019-03-11T13:52:10Z</time>
      </trkpt>
      <trkpt lat="43.86486" lon="2.21628">
        <ele>345</ele>
        <time>2019-03-11T13:52:10Z</time>
      </trkpt>
      <trkpt lat="43.8649" lon="2.21616">
        <ele>345</ele>
        <time>2019-03-11T13:52:23Z</time>
      </trkpt>
      <trkpt lat="43.86493" lon="2.21604">
        <ele>345</ele>
        <time>2019-03-11T13:52:30Z</time>
      </trkpt>
      <trkpt lat="43.86497" lon="2.21592">
        <ele>345</ele>
        <time>2019-03-11T13:52:37Z</time>
      </trkpt>
      <trkpt lat="43.86502" lon="2.2158">
        <ele>346</ele>
        <time>2019-03-11T13:52:44Z</time>
      </trkpt>
      <trkpt lat="43.86504" lon="2.21578">
        <ele>346</ele>
        <time>2019-03-11T13:52:50Z</time>
      </trkpt>
      <trkpt lat="43.86504" lon="2.21578">
        <ele>346</ele>
        <time>2019-03-11T13:52:50Z</time>
      </trkpt>
      <trkpt lat="43.86507" lon="2.21566">
        <ele>346</ele>
        <time>2019-03-11T13:53:09Z</time>
      </trkpt>
      <trkpt lat="43.86509" lon="2.21553">
        <ele>347</ele>
        <time>2019-03-11T13:53:16Z</time>
      </trkpt>
      <trkpt lat="43.86512" lon="2.21539">
        <ele>349</ele>
        <time>2019-03-11T13:53:24Z</time>
      </trkpt>
      <trkpt lat="43.86515" lon="2.21527">
        <ele>349</ele>
        <time>2019-03-11T13:53:36Z</time>
      </trkpt>
      <trkpt lat="43.86518" lon="2.21514">
        <ele>349</ele>
        <time>2019-03-11T13:53:43Z</time>
      </trkpt>
      <trkpt lat="43.86521" lon="2.21502">
        <ele>350</ele>
        <time>2019-03-11T13:53:50Z</time>
      </trkpt>
      <trkpt lat="43.86525" lon="2.2149">
        <ele>350</ele>
        <time>2019-03-11T13:53:57Z</time>
      </trkpt>
      <trkpt lat="43.86528" lon="2.21478">
        <ele>352</ele>
        <time>2019-03-11T13:54:04Z</time>
      </trkpt>
      <trkpt lat="43.86532" lon="2.21466">
        <ele>352</ele>
        <time>2019-03-11T13:54:11Z</time>
      </trkpt>
      <trkpt lat="43.86536" lon="2.21454">
        <ele>354</ele>
        <time>2019-03-11T13:54:18Z</time>
      </trkpt>
      <trkpt lat="43.86538" lon="2.2144">
        <ele>355</ele>
        <time>2019-03-11T13:54:26Z</time>
      </trkpt>
      <trkpt lat="43.86543" lon="2.21427">
        <ele>355</ele>
        <time>2019-03-11T13:54:34Z</time>
      </trkpt>
      <trkpt lat="43.86546" lon="2.21415">
        <ele>355</ele>
        <time>2019-03-11T13:54:41Z</time>
      </trkpt>
      <trkpt lat="43.86549" lon="2.21402">
        <ele>355</ele>
        <time>2019-03-11T13:54:49Z</time>
      </trkpt>
      <trkpt lat="43.86552" lon="2.21389">
        <ele>354</ele>
        <time>2019-03-11T13:54:56Z</time>
      </trkpt>
      <trkpt lat="43.86554" lon="2.21377">
        <ele>355</ele>
        <time>2019-03-11T13:55:03Z</time>
      </trkpt>
      <trkpt lat="43.8656" lon="2.21365">
        <ele>356</ele>
        <time>2019-03-11T13:55:11Z</time>
      </trkpt>
      <trkpt lat="43.86563" lon="2.21353">
        <ele>355</ele>
        <time>2019-03-11T13:55:19Z</time>
      </trkpt>
      <trkpt lat="43.86567" lon="2.21341">
        <ele>357</ele>
        <time>2019-03-11T13:55:28Z</time>
      </trkpt>
      <trkpt lat="43.86568" lon="2.2134">
        <ele>357</ele>
        <time>2019-03-11T13:55:29Z</time>
      </trkpt>
      <trkpt lat="43.86572" lon="2.21327">
        <ele>357</ele>
        <time>2019-03-11T13:55:39Z</time>
      </trkpt>
      <trkpt lat="43.86572" lon="2.21325">
        <ele>357</ele>
        <time>2019-03-11T13:55:40Z</time>
      </trkpt>
      <trkpt lat="43.86576" lon="2.21312">
        <ele>358</ele>
        <time>2019-03-11T13:55:48Z</time>
      </trkpt>
      <trkpt lat="43.8658" lon="2.213">
        <ele>358</ele>
        <time>2019-03-11T13:55:56Z</time>
      </trkpt>
      <trkpt lat="43.86585" lon="2.21289">
        <ele>358</ele>
        <time>2019-03-11T13:56:03Z</time>
      </trkpt>
      <trkpt lat="43.86585" lon="2.21287">
        <ele>358</ele>
        <time>2019-03-11T13:56:04Z</time>
      </trkpt>
      <trkpt lat="43.86588" lon="2.21276">
        <ele>359</ele>
        <time>2019-03-11T13:56:12Z</time>
      </trkpt>
      <trkpt lat="43.8659" lon="2.21263">
        <ele>360</ele>
        <time>2019-03-11T13:56:22Z</time>
      </trkpt>
      <trkpt lat="43.8659" lon="2.21262">
        <ele>360</ele>
        <time>2019-03-11T13:56:23Z</time>
      </trkpt>
      <trkpt lat="43.86595" lon="2.21251">
        <ele>360</ele>
        <time>2019-03-11T13:56:31Z</time>
      </trkpt>
      <trkpt lat="43.86597" lon="2.21238">
        <ele>359</ele>
        <time>2019-03-11T13:56:43Z</time>
      </trkpt>
      <trkpt lat="43.86597" lon="2.21238">
        <ele>359</ele>
        <time>2019-03-11T13:56:47Z</time>
      </trkpt>
      <trkpt lat="43.86597" lon="2.21238">
        <ele>359</ele>
        <time>2019-03-11T13:56:47Z</time>
      </trkpt>
      <trkpt lat="43.86599" lon="2.21235">
        <ele>360</ele>
        <time>2019-03-11T13:57:02Z</time>
      </trkpt>
      <trkpt lat="43.86599" lon="2.21235">
        <ele>360</ele>
        <time>2019-03-11T13:57:02Z</time>
      </trkpt>
      <trkpt lat="43.86601" lon="2.21221">
        <ele>358</ele>
        <time>2019-03-11T13:57:15Z</time>
      </trkpt>
      <trkpt lat="43.86601" lon="2.21207">
        <ele>359</ele>
        <time>2019-03-11T13:57:23Z</time>
      </trkpt>
      <trkpt lat="43.86598" lon="2.21194">
        <ele>361</ele>
        <time>2019-03-11T13:57:32Z</time>
      </trkpt>
      <trkpt lat="43.86598" lon="2.21192">
        <ele>361</ele>
        <time>2019-03-11T13:57:33Z</time>
      </trkpt>
      <trkpt lat="43.86593" lon="2.2118">
        <ele>362</ele>
        <time>2019-03-11T13:57:42Z</time>
      </trkpt>
      <trkpt lat="43.86592" lon="2.21179">
        <ele>362</ele>
        <time>2019-03-11T13:57:43Z</time>
      </trkpt>
      <trkpt lat="43.86587" lon="2.21168">
        <ele>362</ele>
        <time>2019-03-11T13:57:51Z</time>
      </trkpt>
      <trkpt lat="43.86584" lon="2.21166">
        <ele>362</ele>
        <time>2019-03-11T13:57:59Z</time>
      </trkpt>
      <trkpt lat="43.86584" lon="2.21166">
        <ele>362</ele>
        <time>2019-03-11T13:57:59Z</time>
      </trkpt>
      <trkpt lat="43.8658" lon="2.21153">
        <ele>363</ele>
        <time>2019-03-11T13:58:20Z</time>
      </trkpt>
      <trkpt lat="43.86575" lon="2.21147">
        <ele>364</ele>
        <time>2019-03-11T13:58:30Z</time>
      </trkpt>
      <trkpt lat="43.86575" lon="2.21147">
        <ele>364</ele>
        <time>2019-03-11T13:58:30Z</time>
      </trkpt>
      <trkpt lat="43.86572" lon="2.21134">
        <ele>365</ele>
        <time>2019-03-11T13:58:48Z</time>
      </trkpt>
      <trkpt lat="43.86572" lon="2.21132">
        <ele>365</ele>
        <time>2019-03-11T13:58:49Z</time>
      </trkpt>
      <trkpt lat="43.86569" lon="2.2112">
        <ele>366</ele>
        <time>2019-03-11T13:58:57Z</time>
      </trkpt>
      <trkpt lat="43.86569" lon="2.21118">
        <ele>367</ele>
        <time>2019-03-11T13:58:58Z</time>
      </trkpt>
      <trkpt lat="43.86569" lon="2.21117">
        <ele>367</ele>
        <time>2019-03-11T13:58:59Z</time>
      </trkpt>
      <trkpt lat="43.86569" lon="2.21104">
        <ele>367</ele>
        <time>2019-03-11T13:59:09Z</time>
      </trkpt>
      <trkpt lat="43.86569" lon="2.21092">
        <ele>368</ele>
        <time>2019-03-11T13:59:17Z</time>
      </trkpt>
      <trkpt lat="43.8657" lon="2.2109">
        <ele>368</ele>
        <time>2019-03-11T13:59:18Z</time>
      </trkpt>
      <trkpt lat="43.86571" lon="2.21077">
        <ele>369</ele>
        <time>2019-03-11T13:59:28Z</time>
      </trkpt>
      <trkpt lat="43.86572" lon="2.21075">
        <ele>369</ele>
        <time>2019-03-11T13:59:29Z</time>
      </trkpt>
      <trkpt lat="43.86575" lon="2.21062">
        <ele>369</ele>
        <time>2019-03-11T13:59:38Z</time>
      </trkpt>
      <trkpt lat="43.86577" lon="2.21049">
        <ele>370</ele>
        <time>2019-03-11T13:59:46Z</time>
      </trkpt>
      <trkpt lat="43.86577" lon="2.21047">
        <ele>370</ele>
        <time>2019-03-11T13:59:47Z</time>
      </trkpt>
      <trkpt lat="43.86581" lon="2.21036">
        <ele>369</ele>
        <time>2019-03-11T13:59:56Z</time>
      </trkpt>
      <trkpt lat="43.86587" lon="2.21024">
        <ele>370</ele>
        <time>2019-03-11T14:00:04Z</time>
      </trkpt>
      <trkpt lat="43.86592" lon="2.21013">
        <ele>370</ele>
        <time>2019-03-11T14:00:12Z</time>
      </trkpt>
      <trkpt lat="43.86599" lon="2.21004">
        <ele>369</ele>
        <time>2019-03-11T14:00:20Z</time>
      </trkpt>
      <trkpt lat="43.86604" lon="2.20993">
        <ele>369</ele>
        <time>2019-03-11T14:00:28Z</time>
      </trkpt>
      <trkpt lat="43.86609" lon="2.20983">
        <ele>370</ele>
        <time>2019-03-11T14:00:36Z</time>
      </trkpt>
      <trkpt lat="43.86614" lon="2.20971">
        <ele>370</ele>
        <time>2019-03-11T14:00:45Z</time>
      </trkpt>
      <trkpt lat="43.86619" lon="2.20961">
        <ele>368</ele>
        <time>2019-03-11T14:00:54Z</time>
      </trkpt>
      <trkpt lat="43.86626" lon="2.20952">
        <ele>369</ele>
        <time>2019-03-11T14:01:02Z</time>
      </trkpt>
      <trkpt lat="43.86631" lon="2.2094">
        <ele>369</ele>
        <time>2019-03-11T14:01:11Z</time>
      </trkpt>
      <trkpt lat="43.86636" lon="2.2093">
        <ele>369</ele>
        <time>2019-03-11T14:01:19Z</time>
      </trkpt>
      <trkpt lat="43.8664" lon="2.20918">
        <ele>370</ele>
        <time>2019-03-11T14:01:28Z</time>
      </trkpt>
      <trkpt lat="43.86644" lon="2.20906">
        <ele>370</ele>
        <time>2019-03-11T14:01:36Z</time>
      </trkpt>
      <trkpt lat="43.86645" lon="2.20892">
        <ele>368</ele>
        <time>2019-03-11T14:01:45Z</time>
      </trkpt>
      <trkpt lat="43.86646" lon="2.2088">
        <ele>369</ele>
        <time>2019-03-11T14:01:54Z</time>
      </trkpt>
      <trkpt lat="43.86647" lon="2.20867">
        <ele>369</ele>
        <time>2019-03-11T14:02:02Z</time>
      </trkpt>
      <trkpt lat="43.86647" lon="2.20854">
        <ele>369</ele>
        <time>2019-03-11T14:02:11Z</time>
      </trkpt>
      <trkpt lat="43.86648" lon="2.20841">
        <ele>370</ele>
        <time>2019-03-11T14:02:19Z</time>
      </trkpt>
      <trkpt lat="43.8665" lon="2.20828">
        <ele>369</ele>
        <time>2019-03-11T14:02:28Z</time>
      </trkpt>
      <trkpt lat="43.86651" lon="2.20815">
        <ele>370</ele>
        <time>2019-03-11T14:02:38Z</time>
      </trkpt>
      <trkpt lat="43.86652" lon="2.20802">
        <ele>370</ele>
        <time>2019-03-11T14:02:47Z</time>
      </trkpt>
      <trkpt lat="43.86654" lon="2.20788">
        <ele>370</ele>
        <time>2019-03-11T14:02:55Z</time>
      </trkpt>
      <trkpt lat="43.86655" lon="2.20776">
        <ele>372</ele>
        <time>2019-03-11T14:03:04Z</time>
      </trkpt>
      <trkpt lat="43.86655" lon="2.20775">
        <ele>372</ele>
        <time>2019-03-11T14:03:05Z</time>
      </trkpt>
      <trkpt lat="43.86657" lon="2.20761">
        <ele>373</ele>
        <time>2019-03-11T14:03:13Z</time>
      </trkpt>
      <trkpt lat="43.86657" lon="2.2076">
        <ele>373</ele>
        <time>2019-03-11T14:03:14Z</time>
      </trkpt>
      <trkpt lat="43.86656" lon="2.20746">
        <ele>374</ele>
        <time>2019-03-11T14:03:24Z</time>
      </trkpt>
      <trkpt lat="43.86656" lon="2.20745">
        <ele>374</ele>
        <time>2019-03-11T14:03:25Z</time>
      </trkpt>
      <trkpt lat="43.86656" lon="2.20732">
        <ele>374</ele>
        <time>2019-03-11T14:03:33Z</time>
      </trkpt>
      <trkpt lat="43.86658" lon="2.20727">
        <ele>375</ele>
        <time>2019-03-11T14:03:41Z</time>
      </trkpt>
      <trkpt lat="43.86658" lon="2.20727">
        <ele>375</ele>
        <time>2019-03-11T14:03:41Z</time>
      </trkpt>
      <trkpt lat="43.86667" lon="2.2072">
        <ele>379</ele>
        <time>2019-03-11T14:07:07Z</time>
      </trkpt>
      <trkpt lat="43.86668" lon="2.2072">
        <ele>379</ele>
        <time>2019-03-11T14:07:08Z</time>
      </trkpt>
      <trkpt lat="43.86674" lon="2.20719">
        <ele>380</ele>
        <time>2019-03-11T14:07:18Z</time>
      </trkpt>
      <trkpt lat="43.86674" lon="2.20719">
        <ele>380</ele>
        <time>2019-03-11T14:07:18Z</time>
      </trkpt>
      <trkpt lat="43.86683" lon="2.20713">
        <ele>379</ele>
        <time>2019-03-11T14:07:45Z</time>
      </trkpt>
      <trkpt lat="43.86692" lon="2.20708">
        <ele>379</ele>
        <time>2019-03-11T14:07:56Z</time>
      </trkpt>
      <trkpt lat="43.86691" lon="2.20708">
        <ele>379</ele>
        <time>2019-03-11T14:08:00Z</time>
      </trkpt>
      <trkpt lat="43.86691" lon="2.20708">
        <ele>379</ele>
        <time>2019-03-11T14:08:00Z</time>
      </trkpt>
      <trkpt lat="43.86702" lon="2.20711">
        <ele>378</ele>
        <time>2019-03-11T14:08:20Z</time>
      </trkpt>
      <trkpt lat="43.86711" lon="2.2071">
        <ele>377</ele>
        <time>2019-03-11T14:08:29Z</time>
      </trkpt>
      <trkpt lat="43.86712" lon="2.2071">
        <ele>377</ele>
        <time>2019-03-11T14:08:34Z</time>
      </trkpt>
      <trkpt lat="43.86712" lon="2.2071">
        <ele>377</ele>
        <time>2019-03-11T14:08:34Z</time>
      </trkpt>
      <trkpt lat="43.86713" lon="2.20705">
        <ele>377</ele>
        <time>2019-03-11T14:08:53Z</time>
      </trkpt>
      <trkpt lat="43.86713" lon="2.20705">
        <ele>377</ele>
        <time>2019-03-11T14:08:53Z</time>
      </trkpt>
      <trkpt lat="43.86716" lon="2.20716">
        <ele>378</ele>
        <time>2019-03-11T14:09:28Z</time>
      </trkpt>
      <trkpt lat="43.86716" lon="2.20716">
        <ele>378</ele>
        <time>2019-03-11T14:09:28Z</time>
      </trkpt>
      <trkpt lat="43.86725" lon="2.20721">
        <ele>377</ele>
        <time>2019-03-11T14:09:48Z</time>
      </trkpt>
      <trkpt lat="43.86725" lon="2.20721">
        <ele>377</ele>
        <time>2019-03-11T14:09:52Z</time>
      </trkpt>
      <trkpt lat="43.86725" lon="2.20721">
        <ele>377</ele>
        <time>2019-03-11T14:09:52Z</time>
      </trkpt>
      <trkpt lat="43.86732" lon="2.20729">
        <ele>376</ele>
        <time>2019-03-11T14:10:05Z</time>
      </trkpt>
      <trkpt lat="43.86739" lon="2.20738">
        <ele>375</ele>
        <time>2019-03-11T14:10:13Z</time>
      </trkpt>
      <trkpt lat="43.86744" lon="2.20749">
        <ele>374</ele>
        <time>2019-03-11T14:10:29Z</time>
      </trkpt>
      <trkpt lat="43.8675" lon="2.20759">
        <ele>374</ele>
        <time>2019-03-11T14:10:38Z</time>
      </trkpt>
      <trkpt lat="43.86755" lon="2.2077">
        <ele>372</ele>
        <time>2019-03-11T14:10:46Z</time>
      </trkpt>
      <trkpt lat="43.86761" lon="2.20781">
        <ele>372</ele>
        <time>2019-03-11T14:10:53Z</time>
      </trkpt>
      <trkpt lat="43.86765" lon="2.20793">
        <ele>371</ele>
        <time>2019-03-11T14:11:02Z</time>
      </trkpt>
      <trkpt lat="43.86767" lon="2.20805">
        <ele>369</ele>
        <time>2019-03-11T14:11:10Z</time>
      </trkpt>
      <trkpt lat="43.86772" lon="2.20817">
        <ele>369</ele>
        <time>2019-03-11T14:11:19Z</time>
      </trkpt>
      <trkpt lat="43.86774" lon="2.20829">
        <ele>366</ele>
        <time>2019-03-11T14:11:27Z</time>
      </trkpt>
      <trkpt lat="43.86773" lon="2.20842">
        <ele>366</ele>
        <time>2019-03-11T14:11:35Z</time>
      </trkpt>
      <trkpt lat="43.86776" lon="2.20851">
        <ele>366</ele>
        <time>2019-03-11T14:11:47Z</time>
      </trkpt>
      <trkpt lat="43.86776" lon="2.20851">
        <ele>366</ele>
        <time>2019-03-11T14:11:47Z</time>
      </trkpt>
      <trkpt lat="43.86774" lon="2.20864">
        <ele>364</ele>
        <time>2019-03-11T14:12:00Z</time>
      </trkpt>
      <trkpt lat="43.86773" lon="2.20878">
        <ele>365</ele>
        <time>2019-03-11T14:12:09Z</time>
      </trkpt>
      <trkpt lat="43.86772" lon="2.2089">
        <ele>363</ele>
        <time>2019-03-11T14:12:18Z</time>
      </trkpt>
      <trkpt lat="43.86772" lon="2.20898">
        <ele>363</ele>
        <time>2019-03-11T14:12:29Z</time>
      </trkpt>
      <trkpt lat="43.86772" lon="2.20898">
        <ele>363</ele>
        <time>2019-03-11T14:12:29Z</time>
      </trkpt>
      <trkpt lat="43.8677" lon="2.20911">
        <ele>362</ele>
        <time>2019-03-11T14:12:42Z</time>
      </trkpt>
      <trkpt lat="43.86769" lon="2.20925">
        <ele>361</ele>
        <time>2019-03-11T14:12:50Z</time>
      </trkpt>
      <trkpt lat="43.86766" lon="2.20938">
        <ele>360</ele>
        <time>2019-03-11T14:13:00Z</time>
      </trkpt>
      <trkpt lat="43.86766" lon="2.20951">
        <ele>360</ele>
        <time>2019-03-11T14:13:08Z</time>
      </trkpt>
      <trkpt lat="43.86776" lon="2.20955">
        <ele>357</ele>
        <time>2019-03-11T14:13:16Z</time>
      </trkpt>
      <trkpt lat="43.86781" lon="2.20953">
        <ele>358</ele>
        <time>2019-03-11T14:13:26Z</time>
      </trkpt>
      <trkpt lat="43.86781" lon="2.20953">
        <ele>358</ele>
        <time>2019-03-11T14:13:26Z</time>
      </trkpt>
      <trkpt lat="43.86787" lon="2.20943">
        <ele>355</ele>
        <time>2019-03-11T14:13:49Z</time>
      </trkpt>
      <trkpt lat="43.86794" lon="2.20932">
        <ele>352</ele>
        <time>2019-03-11T14:13:58Z</time>
      </trkpt>
      <trkpt lat="43.86802" lon="2.20924">
        <ele>351</ele>
        <time>2019-03-11T14:14:06Z</time>
      </trkpt>
      <trkpt lat="43.86809" lon="2.20915">
        <ele>350</ele>
        <time>2019-03-11T14:14:15Z</time>
      </trkpt>
      <trkpt lat="43.86817" lon="2.20908">
        <ele>349</ele>
        <time>2019-03-11T14:14:35Z</time>
      </trkpt>
      <trkpt lat="43.86824" lon="2.20903">
        <ele>347</ele>
        <time>2019-03-11T14:14:56Z</time>
      </trkpt>
      <trkpt lat="43.86824" lon="2.20903">
        <ele>347</ele>
        <time>2019-03-11T14:14:56Z</time>
      </trkpt>
      <trkpt lat="43.86833" lon="2.20899">
        <ele>346</ele>
        <time>2019-03-11T14:15:18Z</time>
      </trkpt>
      <trkpt lat="43.86842" lon="2.20903">
        <ele>346</ele>
        <time>2019-03-11T14:15:36Z</time>
      </trkpt>
      <trkpt lat="43.8685" lon="2.20908">
        <ele>345</ele>
        <time>2019-03-11T14:15:46Z</time>
      </trkpt>
      <trkpt lat="43.86853" lon="2.20921">
        <ele>344</ele>
        <time>2019-03-11T14:15:54Z</time>
      </trkpt>
      <trkpt lat="43.86853" lon="2.20935">
        <ele>342</ele>
        <time>2019-03-11T14:16:03Z</time>
      </trkpt>
      <trkpt lat="43.86853" lon="2.20948">
        <ele>341</ele>
        <time>2019-03-11T14:16:12Z</time>
      </trkpt>
      <trkpt lat="43.86851" lon="2.20961">
        <ele>339</ele>
        <time>2019-03-11T14:16:22Z</time>
      </trkpt>
      <trkpt lat="43.86849" lon="2.20975">
        <ele>336</ele>
        <time>2019-03-11T14:16:32Z</time>
      </trkpt>
      <trkpt lat="43.86854" lon="2.20987">
        <ele>336</ele>
        <time>2019-03-11T14:16:42Z</time>
      </trkpt>
      <trkpt lat="43.86863" lon="2.20993">
        <ele>334</ele>
        <time>2019-03-11T14:16:51Z</time>
      </trkpt>
      <trkpt lat="43.86871" lon="2.21001">
        <ele>332</ele>
        <time>2019-03-11T14:16:59Z</time>
      </trkpt>
      <trkpt lat="43.86879" lon="2.21008">
        <ele>331</ele>
        <time>2019-03-11T14:17:09Z</time>
      </trkpt>
      <trkpt lat="43.86887" lon="2.21017">
        <ele>330</ele>
        <time>2019-03-11T14:17:20Z</time>
      </trkpt>
      <trkpt lat="43.86895" lon="2.21024">
        <ele>328</ele>
        <time>2019-03-11T14:17:29Z</time>
      </trkpt>
      <trkpt lat="43.86898" lon="2.21029">
        <ele>326</ele>
        <time>2019-03-11T14:17:40Z</time>
      </trkpt>
      <trkpt lat="43.86898" lon="2.21029">
        <ele>326</ele>
        <time>2019-03-11T14:17:40Z</time>
      </trkpt>
      <trkpt lat="43.86908" lon="2.21031">
        <ele>325</ele>
        <time>2019-03-11T14:18:01Z</time>
      </trkpt>
      <trkpt lat="43.86917" lon="2.21022">
        <ele>324</ele>
        <time>2019-03-11T14:18:13Z</time>
      </trkpt>
      <trkpt lat="43.86925" lon="2.21017">
        <ele>323</ele>
        <time>2019-03-11T14:18:21Z</time>
      </trkpt>
      <trkpt lat="43.86935" lon="2.21012">
        <ele>322</ele>
        <time>2019-03-11T14:18:30Z</time>
      </trkpt>
      <trkpt lat="43.86943" lon="2.21006">
        <ele>321</ele>
        <time>2019-03-11T14:18:38Z</time>
      </trkpt>
      <trkpt lat="43.86949" lon="2.20996">
        <ele>320</ele>
        <time>2019-03-11T14:18:46Z</time>
      </trkpt>
      <trkpt lat="43.86956" lon="2.20987">
        <ele>321</ele>
        <time>2019-03-11T14:19:00Z</time>
      </trkpt>
      <trkpt lat="43.86964" lon="2.20979">
        <ele>320</ele>
        <time>2019-03-11T14:19:08Z</time>
      </trkpt>
      <trkpt lat="43.86971" lon="2.20971">
        <ele>318</ele>
        <time>2019-03-11T14:19:16Z</time>
      </trkpt>
      <trkpt lat="43.8698" lon="2.20964">
        <ele>318</ele>
        <time>2019-03-11T14:19:25Z</time>
      </trkpt>
      <trkpt lat="43.86986" lon="2.20955">
        <ele>319</ele>
        <time>2019-03-11T14:19:33Z</time>
      </trkpt>
      <trkpt lat="43.86994" lon="2.20946">
        <ele>317</ele>
        <time>2019-03-11T14:19:42Z</time>
      </trkpt>
      <trkpt lat="43.87001" lon="2.20937">
        <ele>317</ele>
        <time>2019-03-11T14:19:50Z</time>
      </trkpt>
      <trkpt lat="43.87008" lon="2.20928">
        <ele>317</ele>
        <time>2019-03-11T14:19:59Z</time>
      </trkpt>
      <trkpt lat="43.87013" lon="2.20916">
        <ele>316</ele>
        <time>2019-03-11T14:20:08Z</time>
      </trkpt>
      <trkpt lat="43.87017" lon="2.20905">
        <ele>317</ele>
        <time>2019-03-11T14:20:18Z</time>
      </trkpt>
      <trkpt lat="43.87021" lon="2.20892">
        <ele>318</ele>
        <time>2019-03-11T14:20:27Z</time>
      </trkpt>
      <trkpt lat="43.87024" lon="2.2088">
        <ele>318</ele>
        <time>2019-03-11T14:20:36Z</time>
      </trkpt>
      <trkpt lat="43.87029" lon="2.20868">
        <ele>318</ele>
        <time>2019-03-11T14:20:44Z</time>
      </trkpt>
      <trkpt lat="43.87032" lon="2.20856">
        <ele>320</ele>
        <time>2019-03-11T14:20:51Z</time>
      </trkpt>
      <trkpt lat="43.87036" lon="2.20843">
        <ele>321</ele>
        <time>2019-03-11T14:20:59Z</time>
      </trkpt>
      <trkpt lat="43.8704" lon="2.20832">
        <ele>321</ele>
        <time>2019-03-11T14:21:07Z</time>
      </trkpt>
      <trkpt lat="43.87042" lon="2.20819">
        <ele>320</ele>
        <time>2019-03-11T14:21:15Z</time>
      </trkpt>
      <trkpt lat="43.87047" lon="2.20807">
        <ele>320</ele>
        <time>2019-03-11T14:21:23Z</time>
      </trkpt>
      <trkpt lat="43.87051" lon="2.20795">
        <ele>320</ele>
        <time>2019-03-11T14:21:30Z</time>
      </trkpt>
      <trkpt lat="43.87057" lon="2.20783">
        <ele>319</ele>
        <time>2019-03-11T14:21:37Z</time>
      </trkpt>
      <trkpt lat="43.87061" lon="2.20771">
        <ele>319</ele>
        <time>2019-03-11T14:21:44Z</time>
      </trkpt>
      <trkpt lat="43.87065" lon="2.2076">
        <ele>318</ele>
        <time>2019-03-11T14:21:51Z</time>
      </trkpt>
      <trkpt lat="43.87068" lon="2.20748">
        <ele>317</ele>
        <time>2019-03-11T14:21:58Z</time>
      </trkpt>
      <trkpt lat="43.87072" lon="2.20736">
        <ele>317</ele>
        <time>2019-03-11T14:22:06Z</time>
      </trkpt>
      <trkpt lat="43.87077" lon="2.20725">
        <ele>316</ele>
        <time>2019-03-11T14:22:14Z</time>
      </trkpt>
      <trkpt lat="43.8708" lon="2.20713">
        <ele>316</ele>
        <time>2019-03-11T14:22:21Z</time>
      </trkpt>
      <trkpt lat="43.87085" lon="2.20702">
        <ele>315</ele>
        <time>2019-03-11T14:22:29Z</time>
      </trkpt>
      <trkpt lat="43.87089" lon="2.20691">
        <ele>315</ele>
        <time>2019-03-11T14:22:37Z</time>
      </trkpt>
      <trkpt lat="43.87093" lon="2.20678">
        <ele>314</ele>
        <time>2019-03-11T14:22:45Z</time>
      </trkpt>
      <trkpt lat="43.87096" lon="2.20666">
        <ele>314</ele>
        <time>2019-03-11T14:22:52Z</time>
      </trkpt>
      <trkpt lat="43.871" lon="2.20654">
        <ele>315</ele>
        <time>2019-03-11T14:23:00Z</time>
      </trkpt>
      <trkpt lat="43.87104" lon="2.20642">
        <ele>314</ele>
        <time>2019-03-11T14:23:07Z</time>
      </trkpt>
      <trkpt lat="43.87101" lon="2.2063">
        <ele>314</ele>
        <time>2019-03-11T14:23:16Z</time>
      </trkpt>
      <trkpt lat="43.87095" lon="2.2062">
        <ele>313</ele>
        <time>2019-03-11T14:23:24Z</time>
      </trkpt>
      <trkpt lat="43.87088" lon="2.2061">
        <ele>313</ele>
        <time>2019-03-11T14:23:32Z</time>
      </trkpt>
      <trkpt lat="43.87081" lon="2.206">
        <ele>313</ele>
        <time>2019-03-11T14:23:41Z</time>
      </trkpt>
      <trkpt lat="43.87076" lon="2.2059">
        <ele>313</ele>
        <time>2019-03-11T14:23:50Z</time>
      </trkpt>
      <trkpt lat="43.87078" lon="2.20577">
        <ele>312</ele>
        <time>2019-03-11T14:23:58Z</time>
      </trkpt>
      <trkpt lat="43.87087" lon="2.20572">
        <ele>312</ele>
        <time>2019-03-11T14:24:08Z</time>
      </trkpt>
      <trkpt lat="43.87097" lon="2.20573">
        <ele>312</ele>
        <time>2019-03-11T14:24:17Z</time>
      </trkpt>
      <trkpt lat="43.87099" lon="2.20574">
        <ele>312</ele>
        <time>2019-03-11T14:24:23Z</time>
      </trkpt>
      <trkpt lat="43.87099" lon="2.20574">
        <ele>312</ele>
        <time>2019-03-11T14:24:23Z</time>
      </trkpt>
      <trkpt lat="43.87109" lon="2.20573">
        <ele>311</ele>
        <time>2019-03-11T14:24:32Z</time>
      </trkpt>
      <trkpt lat="43.87118" lon="2.20572">
        <ele>311</ele>
        <time>2019-03-11T14:24:38Z</time>
      </trkpt>
      <trkpt lat="43.87127" lon="2.20569">
        <ele>311</ele>
        <time>2019-03-11T14:24:45Z</time>
      </trkpt>
      <trkpt lat="43.87137" lon="2.20567">
        <ele>311</ele>
        <time>2019-03-11T14:24:54Z</time>
      </trkpt>
      <trkpt lat="43.87146" lon="2.20564">
        <ele>309</ele>
        <time>2019-03-11T14:25:03Z</time>
      </trkpt>
      <trkpt lat="43.87155" lon="2.20561">
        <ele>309</ele>
        <time>2019-03-11T14:25:11Z</time>
      </trkpt>
      <trkpt lat="43.87164" lon="2.20557">
        <ele>308</ele>
        <time>2019-03-11T14:25:20Z</time>
      </trkpt>
      <trkpt lat="43.87174" lon="2.20553">
        <ele>307</ele>
        <time>2019-03-11T14:25:29Z</time>
      </trkpt>
      <trkpt lat="43.87183" lon="2.2055">
        <ele>308</ele>
        <time>2019-03-11T14:25:37Z</time>
      </trkpt>
      <trkpt lat="43.87192" lon="2.20547">
        <ele>309</ele>
        <time>2019-03-11T14:25:45Z</time>
      </trkpt>
      <trkpt lat="43.87202" lon="2.20544">
        <ele>309</ele>
        <time>2019-03-11T14:25:55Z</time>
      </trkpt>
      <trkpt lat="43.87211" lon="2.20541">
        <ele>307</ele>
        <time>2019-03-11T14:26:03Z</time>
      </trkpt>
      <trkpt lat="43.8722" lon="2.20538">
        <ele>306</ele>
        <time>2019-03-11T14:26:10Z</time>
      </trkpt>
      <trkpt lat="43.87228" lon="2.20534">
        <ele>305</ele>
        <time>2019-03-11T14:26:18Z</time>
      </trkpt>
      <trkpt lat="43.87238" lon="2.20529">
        <ele>305</ele>
        <time>2019-03-11T14:26:26Z</time>
      </trkpt>
      <trkpt lat="43.87246" lon="2.20526">
        <ele>305</ele>
        <time>2019-03-11T14:26:34Z</time>
      </trkpt>
      <trkpt lat="43.87256" lon="2.20523">
        <ele>305</ele>
        <time>2019-03-11T14:26:43Z</time>
      </trkpt>
      <trkpt lat="43.87264" lon="2.20516">
        <ele>305</ele>
        <time>2019-03-11T14:26:52Z</time>
      </trkpt>
      <trkpt lat="43.87272" lon="2.2051">
        <ele>305</ele>
        <time>2019-03-11T14:27:00Z</time>
      </trkpt>
      <trkpt lat="43.87279" lon="2.20502">
        <ele>305</ele>
        <time>2019-03-11T14:27:12Z</time>
      </trkpt>
      <trkpt lat="43.8728" lon="2.20502">
        <ele>305</ele>
        <time>2019-03-11T14:27:13Z</time>
      </trkpt>
      <trkpt lat="43.8728" lon="2.20502">
        <ele>305</ele>
        <time>2019-03-11T14:27:13Z</time>
      </trkpt>
      <trkpt lat="43.87283" lon="2.20499">
        <ele>306</ele>
        <time>2019-03-11T14:27:24Z</time>
      </trkpt>
      <trkpt lat="43.87283" lon="2.20499">
        <ele>306</ele>
        <time>2019-03-11T14:27:24Z</time>
      </trkpt>
      <trkpt lat="43.87292" lon="2.20496">
        <ele>306</ele>
        <time>2019-03-11T14:28:01Z</time>
      </trkpt>
      <trkpt lat="43.873" lon="2.20489">
        <ele>304</ele>
        <time>2019-03-11T14:28:09Z</time>
      </trkpt>
      <trkpt lat="43.87307" lon="2.20481">
        <ele>304</ele>
        <time>2019-03-11T14:28:17Z</time>
      </trkpt>
      <trkpt lat="43.87315" lon="2.20473">
        <ele>305</ele>
        <time>2019-03-11T14:28:27Z</time>
      </trkpt>
      <trkpt lat="43.87323" lon="2.20467">
        <ele>304</ele>
        <time>2019-03-11T14:28:35Z</time>
      </trkpt>
      <trkpt lat="43.87331" lon="2.20461">
        <ele>304</ele>
        <time>2019-03-11T14:28:43Z</time>
      </trkpt>
      <trkpt lat="43.87339" lon="2.20456">
        <ele>303</ele>
        <time>2019-03-11T14:28:51Z</time>
      </trkpt>
      <trkpt lat="43.87348" lon="2.2045">
        <ele>303</ele>
        <time>2019-03-11T14:29:00Z</time>
      </trkpt>
      <trkpt lat="43.87357" lon="2.20445">
        <ele>303</ele>
        <time>2019-03-11T14:29:08Z</time>
      </trkpt>
      <trkpt lat="43.87364" lon="2.20437">
        <ele>303</ele>
        <time>2019-03-11T14:29:17Z</time>
      </trkpt>
      <trkpt lat="43.87373" lon="2.2043">
        <ele>302</ele>
        <time>2019-03-11T14:29:26Z</time>
      </trkpt>
      <trkpt lat="43.8738" lon="2.20422">
        <ele>303</ele>
        <time>2019-03-11T14:29:34Z</time>
      </trkpt>
      <trkpt lat="43.87388" lon="2.20414">
        <ele>303</ele>
        <time>2019-03-11T14:29:42Z</time>
      </trkpt>
      <trkpt lat="43.87397" lon="2.20409">
        <ele>301</ele>
        <time>2019-03-11T14:29:50Z</time>
      </trkpt>
      <trkpt lat="43.87405" lon="2.20404">
        <ele>301</ele>
        <time>2019-03-11T14:29:58Z</time>
      </trkpt>
      <trkpt lat="43.87413" lon="2.20399">
        <ele>300</ele>
        <time>2019-03-11T14:30:04Z</time>
      </trkpt>
      <trkpt lat="43.87422" lon="2.20393">
        <ele>299</ele>
        <time>2019-03-11T14:30:13Z</time>
      </trkpt>
      <trkpt lat="43.8743" lon="2.20387">
        <ele>299</ele>
        <time>2019-03-11T14:30:21Z</time>
      </trkpt>
      <trkpt lat="43.87439" lon="2.20381">
        <ele>298</ele>
        <time>2019-03-11T14:30:29Z</time>
      </trkpt>
      <trkpt lat="43.87449" lon="2.20377">
        <ele>298</ele>
        <time>2019-03-11T14:30:38Z</time>
      </trkpt>
      <trkpt lat="43.87458" lon="2.20372">
        <ele>299</ele>
        <time>2019-03-11T14:30:46Z</time>
      </trkpt>
      <trkpt lat="43.87467" lon="2.20368">
        <ele>299</ele>
        <time>2019-03-11T14:30:54Z</time>
      </trkpt>
      <trkpt lat="43.87476" lon="2.20362">
        <ele>297</ele>
        <time>2019-03-11T14:31:03Z</time>
      </trkpt>
      <trkpt lat="43.87485" lon="2.20357">
        <ele>298</ele>
        <time>2019-03-11T14:31:10Z</time>
      </trkpt>
      <trkpt lat="43.87495" lon="2.20352">
        <ele>295</ele>
        <time>2019-03-11T14:31:18Z</time>
      </trkpt>
      <trkpt lat="43.87503" lon="2.20348">
        <ele>295</ele>
        <time>2019-03-11T14:31:25Z</time>
      </trkpt>
      <trkpt lat="43.87512" lon="2.20342">
        <ele>294</ele>
        <time>2019-03-11T14:31:33Z</time>
      </trkpt>
      <trkpt lat="43.87521" lon="2.20338">
        <ele>293</ele>
        <time>2019-03-11T14:31:41Z</time>
      </trkpt>
      <trkpt lat="43.87529" lon="2.20335">
        <ele>294</ele>
        <time>2019-03-11T14:31:49Z</time>
      </trkpt>
      <trkpt lat="43.87539" lon="2.20332">
        <ele>294</ele>
        <time>2019-03-11T14:31:57Z</time>
      </trkpt>
      <trkpt lat="43.87548" lon="2.2033">
        <ele>295</ele>
        <time>2019-03-11T14:32:05Z</time>
      </trkpt>
      <trkpt lat="43.87558" lon="2.20326">
        <ele>296</ele>
        <time>2019-03-11T14:32:15Z</time>
      </trkpt>
      <trkpt lat="43.87567" lon="2.20324">
        <ele>296</ele>
        <time>2019-03-11T14:32:23Z</time>
      </trkpt>
      <trkpt lat="43.87577" lon="2.2032">
        <ele>294</ele>
        <time>2019-03-11T14:32:31Z</time>
      </trkpt>
      <trkpt lat="43.87586" lon="2.20317">
        <ele>294</ele>
        <time>2019-03-11T14:32:38Z</time>
      </trkpt>
      <trkpt lat="43.87595" lon="2.20315">
        <ele>294</ele>
        <time>2019-03-11T14:32:46Z</time>
      </trkpt>
      <trkpt lat="43.87605" lon="2.20313">
        <ele>293</ele>
        <time>2019-03-11T14:32:53Z</time>
      </trkpt>
      <trkpt lat="43.87614" lon="2.20312">
        <ele>294</ele>
        <time>2019-03-11T14:33:01Z</time>
      </trkpt>
      <trkpt lat="43.87624" lon="2.2031">
        <ele>295</ele>
        <time>2019-03-11T14:33:10Z</time>
      </trkpt>
      <trkpt lat="43.87634" lon="2.20309">
        <ele>296</ele>
        <time>2019-03-11T14:33:18Z</time>
      </trkpt>
      <trkpt lat="43.87644" lon="2.20308">
        <ele>297</ele>
        <time>2019-03-11T14:33:30Z</time>
      </trkpt>
      <trkpt lat="43.87653" lon="2.20303">
        <ele>297</ele>
        <time>2019-03-11T14:33:38Z</time>
      </trkpt>
      <trkpt lat="43.87663" lon="2.20299">
        <ele>297</ele>
        <time>2019-03-11T14:33:45Z</time>
      </trkpt>
      <trkpt lat="43.87671" lon="2.20293">
        <ele>297</ele>
        <time>2019-03-11T14:33:55Z</time>
      </trkpt>
      <trkpt lat="43.87676" lon="2.20282">
        <ele>296</ele>
        <time>2019-03-11T14:34:08Z</time>
      </trkpt>
      <trkpt lat="43.8767" lon="2.20271">
        <ele>298</ele>
        <time>2019-03-11T14:34:18Z</time>
      </trkpt>
      <trkpt lat="43.87662" lon="2.20262">
        <ele>297</ele>
        <time>2019-03-11T14:34:27Z</time>
      </trkpt>
      <trkpt lat="43.87653" lon="2.20255">
        <ele>297</ele>
        <time>2019-03-11T14:34:36Z</time>
      </trkpt>
      <trkpt lat="43.87645" lon="2.20248">
        <ele>297</ele>
        <time>2019-03-11T14:34:45Z</time>
      </trkpt>
      <trkpt lat="43.87637" lon="2.20241">
        <ele>298</ele>
        <time>2019-03-11T14:34:56Z</time>
      </trkpt>
      <trkpt lat="43.87628" lon="2.20235">
        <ele>299</ele>
        <time>2019-03-11T14:35:06Z</time>
      </trkpt>
      <trkpt lat="43.87619" lon="2.2023">
        <ele>300</ele>
        <time>2019-03-11T14:35:15Z</time>
      </trkpt>
      <trkpt lat="43.87609" lon="2.20225">
        <ele>300</ele>
        <time>2019-03-11T14:35:25Z</time>
      </trkpt>
      <trkpt lat="43.876" lon="2.20222">
        <ele>301</ele>
        <time>2019-03-11T14:35:34Z</time>
      </trkpt>
      <trkpt lat="43.87591" lon="2.20214">
        <ele>300</ele>
        <time>2019-03-11T14:35:42Z</time>
      </trkpt>
      <trkpt lat="43.87584" lon="2.20207">
        <ele>299</ele>
        <time>2019-03-11T14:35:48Z</time>
      </trkpt>
      <trkpt lat="43.87574" lon="2.20203">
        <ele>300</ele>
        <time>2019-03-11T14:35:56Z</time>
      </trkpt>
      <trkpt lat="43.87564" lon="2.20197">
        <ele>299</ele>
        <time>2019-03-11T14:36:06Z</time>
      </trkpt>
      <trkpt lat="43.87555" lon="2.20189">
        <ele>300</ele>
        <time>2019-03-11T14:36:14Z</time>
      </trkpt>
      <trkpt lat="43.87545" lon="2.20183">
        <ele>301</ele>
        <time>2019-03-11T14:36:24Z</time>
      </trkpt>
      <trkpt lat="43.87536" lon="2.20177">
        <ele>302</ele>
        <time>2019-03-11T14:36:35Z</time>
      </trkpt>
      <trkpt lat="43.87529" lon="2.20169">
        <ele>301</ele>
        <time>2019-03-11T14:36:41Z</time>
      </trkpt>
      <trkpt lat="43.8752" lon="2.20163">
        <ele>302</ele>
        <time>2019-03-11T14:36:48Z</time>
      </trkpt>
      <trkpt lat="43.87511" lon="2.20157">
        <ele>302</ele>
        <time>2019-03-11T14:36:58Z</time>
      </trkpt>
      <trkpt lat="43.87503" lon="2.2015">
        <ele>301</ele>
        <time>2019-03-11T14:37:08Z</time>
      </trkpt>
      <trkpt lat="43.87503" lon="2.2015">
        <ele>301</ele>
        <time>2019-03-11T14:37:10Z</time>
      </trkpt>
      <trkpt lat="43.87503" lon="2.2015">
        <ele>301</ele>
        <time>2019-03-11T14:37:10Z</time>
      </trkpt>
      <trkpt lat="43.87494" lon="2.20144">
        <ele>300</ele>
        <time>2019-03-11T14:37:31Z</time>
      </trkpt>
      <trkpt lat="43.87487" lon="2.20135">
        <ele>299</ele>
        <time>2019-03-11T14:37:38Z</time>
      </trkpt>
      <trkpt lat="43.87478" lon="2.20129">
        <ele>298</ele>
        <time>2019-03-11T14:37:52Z</time>
      </trkpt>
      <trkpt lat="43.87477" lon="2.20127">
        <ele>297</ele>
        <time>2019-03-11T14:37:56Z</time>
      </trkpt>
      <trkpt lat="43.87477" lon="2.20127">
        <ele>297</ele>
        <time>2019-03-11T14:37:56Z</time>
      </trkpt>
      <trkpt lat="43.87469" lon="2.20118">
        <ele>296</ele>
        <time>2019-03-11T14:38:07Z</time>
      </trkpt>
      <trkpt lat="43.8746" lon="2.20113">
        <ele>296</ele>
        <time>2019-03-11T14:38:14Z</time>
      </trkpt>
      <trkpt lat="43.87451" lon="2.20107">
        <ele>295</ele>
        <time>2019-03-11T14:38:22Z</time>
      </trkpt>
      <trkpt lat="43.87442" lon="2.20103">
        <ele>296</ele>
        <time>2019-03-11T14:38:31Z</time>
      </trkpt>
      <trkpt lat="43.87434" lon="2.20096">
        <ele>295</ele>
        <time>2019-03-11T14:38:37Z</time>
      </trkpt>
      <trkpt lat="43.87426" lon="2.20092">
        <ele>295</ele>
        <time>2019-03-11T14:38:44Z</time>
      </trkpt>
      <trkpt lat="43.87417" lon="2.20086">
        <ele>293</ele>
        <time>2019-03-11T14:38:51Z</time>
      </trkpt>
      <trkpt lat="43.87408" lon="2.20081">
        <ele>293</ele>
        <time>2019-03-11T14:38:59Z</time>
      </trkpt>
      <trkpt lat="43.874" lon="2.20074">
        <ele>293</ele>
        <time>2019-03-11T14:39:05Z</time>
      </trkpt>
      <trkpt lat="43.87391" lon="2.20068">
        <ele>294</ele>
        <time>2019-03-11T14:39:15Z</time>
      </trkpt>
      <trkpt lat="43.87383" lon="2.20062">
        <ele>294</ele>
        <time>2019-03-11T14:39:23Z</time>
      </trkpt>
      <trkpt lat="43.87376" lon="2.20053">
        <ele>294</ele>
        <time>2019-03-11T14:39:30Z</time>
      </trkpt>
      <trkpt lat="43.8737" lon="2.20043">
        <ele>294</ele>
        <time>2019-03-11T14:39:40Z</time>
      </trkpt>
      <trkpt lat="43.87364" lon="2.20034">
        <ele>294</ele>
        <time>2019-03-11T14:39:51Z</time>
      </trkpt>
      <trkpt lat="43.87358" lon="2.20024">
        <ele>293</ele>
        <time>2019-03-11T14:39:58Z</time>
      </trkpt>
      <trkpt lat="43.87351" lon="2.20017">
        <ele>294</ele>
        <time>2019-03-11T14:40:08Z</time>
      </trkpt>
      <trkpt lat="43.87344" lon="2.20009">
        <ele>292</ele>
        <time>2019-03-11T14:40:16Z</time>
      </trkpt>
      <trkpt lat="43.87337" lon="2.20001">
        <ele>293</ele>
        <time>2019-03-11T14:40:23Z</time>
      </trkpt>
      <trkpt lat="43.8733" lon="2.19992">
        <ele>292</ele>
        <time>2019-03-11T14:40:31Z</time>
      </trkpt>
      <trkpt lat="43.87323" lon="2.19983">
        <ele>293</ele>
        <time>2019-03-11T14:40:41Z</time>
      </trkpt>
      <trkpt lat="43.87319" lon="2.19972">
        <ele>294</ele>
        <time>2019-03-11T14:40:52Z</time>
      </trkpt>
      <trkpt lat="43.87312" lon="2.19963">
        <ele>294</ele>
        <time>2019-03-11T14:41:04Z</time>
      </trkpt>
      <trkpt lat="43.87304" lon="2.19953">
        <ele>295</ele>
        <time>2019-03-11T14:41:15Z</time>
      </trkpt>
      <trkpt lat="43.87298" lon="2.19944">
        <ele>294</ele>
        <time>2019-03-11T14:41:28Z</time>
      </trkpt>
      <trkpt lat="43.87291" lon="2.19935">
        <ele>295</ele>
        <time>2019-03-11T14:41:40Z</time>
      </trkpt>
      <trkpt lat="43.87284" lon="2.19927">
        <ele>296</ele>
        <time>2019-03-11T14:41:52Z</time>
      </trkpt>
      <trkpt lat="43.87282" lon="2.19927">
        <ele>297</ele>
        <time>2019-03-11T14:41:58Z</time>
      </trkpt>
      <trkpt lat="43.87282" lon="2.19927">
        <ele>297</ele>
        <time>2019-03-11T14:41:58Z</time>
      </trkpt>
      <trkpt lat="43.87277" lon="2.19916">
        <ele>297</ele>
        <time>2019-03-11T14:42:11Z</time>
      </trkpt>
      <trkpt lat="43.8727" lon="2.19906">
        <ele>300</ele>
        <time>2019-03-11T14:42:24Z</time>
      </trkpt>
      <trkpt lat="43.87264" lon="2.19896">
        <ele>300</ele>
        <time>2019-03-11T14:42:37Z</time>
      </trkpt>
      <trkpt lat="43.87259" lon="2.19886">
        <ele>301</ele>
        <time>2019-03-11T14:42:48Z</time>
      </trkpt>
      <trkpt lat="43.8725" lon="2.19882">
        <ele>303</ele>
        <time>2019-03-11T14:42:59Z</time>
      </trkpt>
      <trkpt lat="43.87243" lon="2.19875">
        <ele>306</ele>
        <time>2019-03-11T14:43:12Z</time>
      </trkpt>
      <trkpt lat="43.87233" lon="2.19869">
        <ele>306</ele>
        <time>2019-03-11T14:43:23Z</time>
      </trkpt>
      <trkpt lat="43.87228" lon="2.19858">
        <ele>308</ele>
        <time>2019-03-11T14:43:37Z</time>
      </trkpt>
      <trkpt lat="43.87225" lon="2.19846">
        <ele>309</ele>
        <time>2019-03-11T14:43:57Z</time>
      </trkpt>
      <trkpt lat="43.8722" lon="2.19836">
        <ele>312</ele>
        <time>2019-03-11T14:44:10Z</time>
      </trkpt>
      <trkpt lat="43.8722" lon="2.19836">
        <ele>312</ele>
        <time>2019-03-11T14:44:11Z</time>
      </trkpt>
      <trkpt lat="43.8722" lon="2.19836">
        <ele>312</ele>
        <time>2019-03-11T14:44:11Z</time>
      </trkpt>
      <trkpt lat="43.87215" lon="2.19824">
        <ele>313</ele>
        <time>2019-03-11T14:44:25Z</time>
      </trkpt>
      <trkpt lat="43.87207" lon="2.19817">
        <ele>315</ele>
        <time>2019-03-11T14:44:42Z</time>
      </trkpt>
      <trkpt lat="43.87199" lon="2.19822">
        <ele>320</ele>
        <time>2019-03-11T14:45:09Z</time>
      </trkpt>
      <trkpt lat="43.87189" lon="2.19822">
        <ele>320</ele>
        <time>2019-03-11T14:45:21Z</time>
      </trkpt>
      <trkpt lat="43.87184" lon="2.19823">
        <ele>321</ele>
        <time>2019-03-11T14:45:28Z</time>
      </trkpt>
      <trkpt lat="43.87184" lon="2.19823">
        <ele>321</ele>
        <time>2019-03-11T14:45:28Z</time>
      </trkpt>
      <trkpt lat="43.87175" lon="2.19827">
        <ele>323</ele>
        <time>2019-03-11T14:45:45Z</time>
      </trkpt>
      <trkpt lat="43.87166" lon="2.19831">
        <ele>323</ele>
        <time>2019-03-11T14:46:00Z</time>
      </trkpt>
      <trkpt lat="43.8716" lon="2.19839">
        <ele>325</ele>
        <time>2019-03-11T14:46:17Z</time>
      </trkpt>
      <trkpt lat="43.8716" lon="2.19839">
        <ele>325</ele>
        <time>2019-03-11T14:46:17Z</time>
      </trkpt>
      <trkpt lat="43.87153" lon="2.19831">
        <ele>327</ele>
        <time>2019-03-11T14:46:28Z</time>
      </trkpt>
      <trkpt lat="43.87144" lon="2.19828">
        <ele>330</ele>
        <time>2019-03-11T14:46:42Z</time>
      </trkpt>
      <trkpt lat="43.87138" lon="2.19838">
        <ele>332</ele>
        <time>2019-03-11T14:46:55Z</time>
      </trkpt>
      <trkpt lat="43.87129" lon="2.19843">
        <ele>336</ele>
        <time>2019-03-11T14:47:15Z</time>
      </trkpt>
      <trkpt lat="43.87122" lon="2.19845">
        <ele>338</ele>
        <time>2019-03-11T14:47:43Z</time>
      </trkpt>
      <trkpt lat="43.87122" lon="2.19845">
        <ele>338</ele>
        <time>2019-03-11T14:47:43Z</time>
      </trkpt>
      <trkpt lat="43.87119" lon="2.1984">
        <ele>342</ele>
        <time>2019-03-11T14:51:41Z</time>
      </trkpt>
      <trkpt lat="43.87119" lon="2.1984">
        <ele>342</ele>
        <time>2019-03-11T14:51:41Z</time>
      </trkpt>
      <trkpt lat="43.87124" lon="2.19829">
        <ele>342</ele>
        <time>2019-03-11T14:51:56Z</time>
      </trkpt>
      <trkpt lat="43.87116" lon="2.19821">
        <ele>341</ele>
        <time>2019-03-11T14:52:08Z</time>
      </trkpt>
      <trkpt lat="43.87109" lon="2.1983">
        <ele>344</ele>
        <time>2019-03-11T14:52:21Z</time>
      </trkpt>
      <trkpt lat="43.87102" lon="2.19838">
        <ele>345</ele>
        <time>2019-03-11T14:52:37Z</time>
      </trkpt>
      <trkpt lat="43.87093" lon="2.19844">
        <ele>347</ele>
        <time>2019-03-11T14:52:48Z</time>
      </trkpt>
      <trkpt lat="43.87086" lon="2.19853">
        <ele>349</ele>
        <time>2019-03-11T14:53:01Z</time>
      </trkpt>
      <trkpt lat="43.87079" lon="2.19861">
        <ele>351</ele>
        <time>2019-03-11T14:53:16Z</time>
      </trkpt>
      <trkpt lat="43.87071" lon="2.19867">
        <ele>351</ele>
        <time>2019-03-11T14:53:26Z</time>
      </trkpt>
      <trkpt lat="43.87063" lon="2.19876">
        <ele>352</ele>
        <time>2019-03-11T14:53:36Z</time>
      </trkpt>
      <trkpt lat="43.87055" lon="2.19882">
        <ele>349</ele>
        <time>2019-03-11T14:53:53Z</time>
      </trkpt>
      <trkpt lat="43.87055" lon="2.19882">
        <ele>349</ele>
        <time>2019-03-11T14:53:55Z</time>
      </trkpt>
      <trkpt lat="43.87055" lon="2.19882">
        <ele>349</ele>
        <time>2019-03-11T14:53:55Z</time>
      </trkpt>
      <trkpt lat="43.87047" lon="2.19888">
        <ele>349</ele>
        <time>2019-03-11T14:54:09Z</time>
      </trkpt>
      <trkpt lat="43.87038" lon="2.19895">
        <ele>349</ele>
        <time>2019-03-11T14:54:22Z</time>
      </trkpt>
      <trkpt lat="43.8703" lon="2.19899">
        <ele>351</ele>
        <time>2019-03-11T14:54:32Z</time>
      </trkpt>
      <trkpt lat="43.87021" lon="2.19902">
        <ele>353</ele>
        <time>2019-03-11T14:54:41Z</time>
      </trkpt>
      <trkpt lat="43.8701" lon="2.199">
        <ele>355</ele>
        <time>2019-03-11T14:54:49Z</time>
      </trkpt>
      <trkpt lat="43.87004" lon="2.19891">
        <ele>355</ele>
        <time>2019-03-11T14:55:03Z</time>
      </trkpt>
      <trkpt lat="43.87003" lon="2.19877">
        <ele>355</ele>
        <time>2019-03-11T14:55:17Z</time>
      </trkpt>
      <trkpt lat="43.87005" lon="2.19864">
        <ele>354</ele>
        <time>2019-03-11T14:55:27Z</time>
      </trkpt>
      <trkpt lat="43.87014" lon="2.19859">
        <ele>353</ele>
        <time>2019-03-11T14:55:37Z</time>
      </trkpt>
      <trkpt lat="43.87024" lon="2.19855">
        <ele>355</ele>
        <time>2019-03-11T14:55:45Z</time>
      </trkpt>
      <trkpt lat="43.87032" lon="2.19848">
        <ele>354</ele>
        <time>2019-03-11T14:55:53Z</time>
      </trkpt>
      <trkpt lat="43.87041" lon="2.19841">
        <ele>354</ele>
        <time>2019-03-11T14:56:02Z</time>
      </trkpt>
      <trkpt lat="43.87048" lon="2.19834">
        <ele>356</ele>
        <time>2019-03-11T14:56:13Z</time>
      </trkpt>
      <trkpt lat="43.87058" lon="2.1983">
        <ele>356</ele>
        <time>2019-03-11T14:56:22Z</time>
      </trkpt>
      <trkpt lat="43.87062" lon="2.19818">
        <ele>359</ele>
        <time>2019-03-11T14:56:33Z</time>
      </trkpt>
      <trkpt lat="43.87067" lon="2.19807">
        <ele>359</ele>
        <time>2019-03-11T14:56:41Z</time>
      </trkpt>
      <trkpt lat="43.87075" lon="2.198">
        <ele>360</ele>
        <time>2019-03-11T14:56:49Z</time>
      </trkpt>
      <trkpt lat="43.8708" lon="2.19789">
        <ele>360</ele>
        <time>2019-03-11T14:56:57Z</time>
      </trkpt>
      <trkpt lat="43.87083" lon="2.19778">
        <ele>361</ele>
        <time>2019-03-11T14:57:06Z</time>
      </trkpt>
      <trkpt lat="43.87089" lon="2.19767">
        <ele>361</ele>
        <time>2019-03-11T14:57:13Z</time>
      </trkpt>
      <trkpt lat="43.87095" lon="2.19757">
        <ele>361</ele>
        <time>2019-03-11T14:57:21Z</time>
      </trkpt>
      <trkpt lat="43.87102" lon="2.19749">
        <ele>360</ele>
        <time>2019-03-11T14:57:29Z</time>
      </trkpt>
      <trkpt lat="43.87108" lon="2.19739">
        <ele>360</ele>
        <time>2019-03-11T14:57:36Z</time>
      </trkpt>
      <trkpt lat="43.87115" lon="2.1973">
        <ele>360</ele>
        <time>2019-03-11T14:57:44Z</time>
      </trkpt>
      <trkpt lat="43.87119" lon="2.19719">
        <ele>361</ele>
        <time>2019-03-11T14:57:54Z</time>
      </trkpt>
      <trkpt lat="43.87125" lon="2.19709">
        <ele>360</ele>
        <time>2019-03-11T14:58:02Z</time>
      </trkpt>
      <trkpt lat="43.87133" lon="2.19699">
        <ele>361</ele>
        <time>2019-03-11T14:58:10Z</time>
      </trkpt>
      <trkpt lat="43.87138" lon="2.19693">
        <ele>361</ele>
        <time>2019-03-11T14:58:22Z</time>
      </trkpt>
      <trkpt lat="43.87138" lon="2.19693">
        <ele>361</ele>
        <time>2019-03-11T14:58:22Z</time>
      </trkpt>
      <trkpt lat="43.87147" lon="2.19688">
        <ele>356</ele>
        <time>2019-03-11T14:59:43Z</time>
      </trkpt>
      <trkpt lat="43.87156" lon="2.19683">
        <ele>354</ele>
        <time>2019-03-11T14:59:54Z</time>
      </trkpt>
      <trkpt lat="43.87162" lon="2.19673">
        <ele>355</ele>
        <time>2019-03-11T15:00:02Z</time>
      </trkpt>
      <trkpt lat="43.87168" lon="2.19664">
        <ele>356</ele>
        <time>2019-03-11T15:00:10Z</time>
      </trkpt>
      <trkpt lat="43.87175" lon="2.19655">
        <ele>354</ele>
        <time>2019-03-11T15:00:19Z</time>
      </trkpt>
      <trkpt lat="43.87181" lon="2.19646">
        <ele>354</ele>
        <time>2019-03-11T15:00:27Z</time>
      </trkpt>
      <trkpt lat="43.87188" lon="2.19637">
        <ele>352</ele>
        <time>2019-03-11T15:00:36Z</time>
      </trkpt>
      <trkpt lat="43.87195" lon="2.19629">
        <ele>350</ele>
        <time>2019-03-11T15:00:44Z</time>
      </trkpt>
      <trkpt lat="43.87204" lon="2.19621">
        <ele>350</ele>
        <time>2019-03-11T15:00:53Z</time>
      </trkpt>
      <trkpt lat="43.8721" lon="2.19611">
        <ele>349</ele>
        <time>2019-03-11T15:01:01Z</time>
      </trkpt>
      <trkpt lat="43.87217" lon="2.19603">
        <ele>348</ele>
        <time>2019-03-11T15:01:08Z</time>
      </trkpt>
      <trkpt lat="43.87223" lon="2.19592">
        <ele>348</ele>
        <time>2019-03-11T15:01:16Z</time>
      </trkpt>
      <trkpt lat="43.87229" lon="2.19582">
        <ele>347</ele>
        <time>2019-03-11T15:01:25Z</time>
      </trkpt>
      <trkpt lat="43.87234" lon="2.1957">
        <ele>346</ele>
        <time>2019-03-11T15:01:35Z</time>
      </trkpt>
      <trkpt lat="43.87239" lon="2.1956">
        <ele>345</ele>
        <time>2019-03-11T15:01:42Z</time>
      </trkpt>
      <trkpt lat="43.87244" lon="2.19549">
        <ele>345</ele>
        <time>2019-03-11T15:01:50Z</time>
      </trkpt>
      <trkpt lat="43.87249" lon="2.19537">
        <ele>346</ele>
        <time>2019-03-11T15:01:58Z</time>
      </trkpt>
      <trkpt lat="43.87255" lon="2.19526">
        <ele>346</ele>
        <time>2019-03-11T15:02:06Z</time>
      </trkpt>
      <trkpt lat="43.87262" lon="2.19516">
        <ele>345</ele>
        <time>2019-03-11T15:02:14Z</time>
      </trkpt>
      <trkpt lat="43.87267" lon="2.19504">
        <ele>344</ele>
        <time>2019-03-11T15:02:22Z</time>
      </trkpt>
      <trkpt lat="43.87272" lon="2.19492">
        <ele>344</ele>
        <time>2019-03-11T15:02:32Z</time>
      </trkpt>
      <trkpt lat="43.87277" lon="2.1948">
        <ele>342</ele>
        <time>2019-03-11T15:02:40Z</time>
      </trkpt>
      <trkpt lat="43.87283" lon="2.19469">
        <ele>342</ele>
        <time>2019-03-11T15:02:47Z</time>
      </trkpt>
      <trkpt lat="43.87287" lon="2.19456">
        <ele>340</ele>
        <time>2019-03-11T15:02:58Z</time>
      </trkpt>
      <trkpt lat="43.87292" lon="2.19445">
        <ele>341</ele>
        <time>2019-03-11T15:03:08Z</time>
      </trkpt>
      <trkpt lat="43.87292" lon="2.19445">
        <ele>341</ele>
        <time>2019-03-11T15:03:10Z</time>
      </trkpt>
      <trkpt lat="43.87292" lon="2.19445">
        <ele>341</ele>
        <time>2019-03-11T15:03:10Z</time>
      </trkpt>
      <trkpt lat="43.87292" lon="2.19446">
        <ele>340</ele>
        <time>2019-03-11T15:03:37Z</time>
      </trkpt>
      <trkpt lat="43.87292" lon="2.19446">
        <ele>340</ele>
        <time>2019-03-11T15:03:37Z</time>
      </trkpt>
      <trkpt lat="43.87287" lon="2.19433">
        <ele>340</ele>
        <time>2019-03-11T15:04:08Z</time>
      </trkpt>
      <trkpt lat="43.87283" lon="2.1943">
        <ele>342</ele>
        <time>2019-03-11T15:04:19Z</time>
      </trkpt>
      <trkpt lat="43.87283" lon="2.1943">
        <ele>342</ele>
        <time>2019-03-11T15:04:19Z</time>
      </trkpt>
      <trkpt lat="43.87274" lon="2.19425">
        <ele>339</ele>
        <time>2019-03-11T15:07:34Z</time>
      </trkpt>
      <trkpt lat="43.87265" lon="2.19423">
        <ele>340</ele>
        <time>2019-03-11T15:07:43Z</time>
      </trkpt>
      <trkpt lat="43.87255" lon="2.19423">
        <ele>341</ele>
        <time>2019-03-11T15:07:53Z</time>
      </trkpt>
      <trkpt lat="43.87246" lon="2.19419">
        <ele>343</ele>
        <time>2019-03-11T15:08:02Z</time>
      </trkpt>
      <trkpt lat="43.87236" lon="2.19416">
        <ele>344</ele>
        <time>2019-03-11T15:08:12Z</time>
      </trkpt>
      <trkpt lat="43.87228" lon="2.19409">
        <ele>344</ele>
        <time>2019-03-11T15:08:20Z</time>
      </trkpt>
      <trkpt lat="43.87221" lon="2.19402">
        <ele>345</ele>
        <time>2019-03-11T15:08:28Z</time>
      </trkpt>
      <trkpt lat="43.87213" lon="2.19395">
        <ele>345</ele>
        <time>2019-03-11T15:08:37Z</time>
      </trkpt>
      <trkpt lat="43.87207" lon="2.19384">
        <ele>344</ele>
        <time>2019-03-11T15:08:46Z</time>
      </trkpt>
      <trkpt lat="43.872" lon="2.19374">
        <ele>345</ele>
        <time>2019-03-11T15:08:56Z</time>
      </trkpt>
      <trkpt lat="43.87192" lon="2.19366">
        <ele>346</ele>
        <time>2019-03-11T15:09:04Z</time>
      </trkpt>
      <trkpt lat="43.87186" lon="2.19358">
        <ele>345</ele>
        <time>2019-03-11T15:09:11Z</time>
      </trkpt>
      <trkpt lat="43.87184" lon="2.19352">
        <ele>346</ele>
        <time>2019-03-11T15:09:23Z</time>
      </trkpt>
      <trkpt lat="43.87184" lon="2.19352">
        <ele>346</ele>
        <time>2019-03-11T15:09:23Z</time>
      </trkpt>
      <trkpt lat="43.87178" lon="2.19342">
        <ele>347</ele>
        <time>2019-03-11T15:09:42Z</time>
      </trkpt>
      <trkpt lat="43.87179" lon="2.19341">
        <ele>347</ele>
        <time>2019-03-11T15:09:48Z</time>
      </trkpt>
      <trkpt lat="43.87179" lon="2.19341">
        <ele>347</ele>
        <time>2019-03-11T15:09:48Z</time>
      </trkpt>
      <trkpt lat="43.8717" lon="2.19332">
        <ele>349</ele>
        <time>2019-03-11T15:10:10Z</time>
      </trkpt>
      <trkpt lat="43.87163" lon="2.19325">
        <ele>348</ele>
        <time>2019-03-11T15:10:17Z</time>
      </trkpt>
      <trkpt lat="43.87157" lon="2.19315">
        <ele>349</ele>
        <time>2019-03-11T15:10:26Z</time>
      </trkpt>
      <trkpt lat="43.87151" lon="2.19304">
        <ele>349</ele>
        <time>2019-03-11T15:10:34Z</time>
      </trkpt>
      <trkpt lat="43.87144" lon="2.19296">
        <ele>349</ele>
        <time>2019-03-11T15:10:40Z</time>
      </trkpt>
      <trkpt lat="43.87137" lon="2.19286">
        <ele>349</ele>
        <time>2019-03-11T15:10:49Z</time>
      </trkpt>
      <trkpt lat="43.8713" lon="2.19277">
        <ele>350</ele>
        <time>2019-03-11T15:10:56Z</time>
      </trkpt>
      <trkpt lat="43.87124" lon="2.19268">
        <ele>351</ele>
        <time>2019-03-11T15:11:06Z</time>
      </trkpt>
      <trkpt lat="43.87116" lon="2.19258">
        <ele>352</ele>
        <time>2019-03-11T15:11:15Z</time>
      </trkpt>
      <trkpt lat="43.8711" lon="2.19248">
        <ele>353</ele>
        <time>2019-03-11T15:11:22Z</time>
      </trkpt>
      <trkpt lat="43.87103" lon="2.19239">
        <ele>354</ele>
        <time>2019-03-11T15:11:31Z</time>
      </trkpt>
      <trkpt lat="43.87095" lon="2.19231">
        <ele>355</ele>
        <time>2019-03-11T15:11:38Z</time>
      </trkpt>
      <trkpt lat="43.87089" lon="2.1922">
        <ele>356</ele>
        <time>2019-03-11T15:11:46Z</time>
      </trkpt>
      <trkpt lat="43.87085" lon="2.19209">
        <ele>358</ele>
        <time>2019-03-11T15:11:59Z</time>
      </trkpt>
      <trkpt lat="43.87083" lon="2.19197">
        <ele>357</ele>
        <time>2019-03-11T15:12:08Z</time>
      </trkpt>
      <trkpt lat="43.87079" lon="2.19185">
        <ele>358</ele>
        <time>2019-03-11T15:12:22Z</time>
      </trkpt>
      <trkpt lat="43.87073" lon="2.19175">
        <ele>358</ele>
        <time>2019-03-11T15:12:35Z</time>
      </trkpt>
      <trkpt lat="43.87064" lon="2.19171">
        <ele>360</ele>
        <time>2019-03-11T15:12:45Z</time>
      </trkpt>
      <trkpt lat="43.87055" lon="2.19167">
        <ele>360</ele>
        <time>2019-03-11T15:12:53Z</time>
      </trkpt>
      <trkpt lat="43.87045" lon="2.19162">
        <ele>360</ele>
        <time>2019-03-11T15:13:02Z</time>
      </trkpt>
      <trkpt lat="43.87037" lon="2.19156">
        <ele>361</ele>
        <time>2019-03-11T15:13:10Z</time>
      </trkpt>
      <trkpt lat="43.87027" lon="2.19154">
        <ele>362</ele>
        <time>2019-03-11T15:13:22Z</time>
      </trkpt>
      <trkpt lat="43.87018" lon="2.1915">
        <ele>360</ele>
        <time>2019-03-11T15:13:32Z</time>
      </trkpt>
      <trkpt lat="43.87009" lon="2.19145">
        <ele>362</ele>
        <time>2019-03-11T15:13:41Z</time>
      </trkpt>
      <trkpt lat="43.86999" lon="2.19146">
        <ele>363</ele>
        <time>2019-03-11T15:13:53Z</time>
      </trkpt>
      <trkpt lat="43.8699" lon="2.19146">
        <ele>363</ele>
        <time>2019-03-11T15:14:00Z</time>
      </trkpt>
      <trkpt lat="43.86981" lon="2.19146">
        <ele>362</ele>
        <time>2019-03-11T15:14:09Z</time>
      </trkpt>
      <trkpt lat="43.86971" lon="2.1915">
        <ele>360</ele>
        <time>2019-03-11T15:14:18Z</time>
      </trkpt>
      <trkpt lat="43.86962" lon="2.19151">
        <ele>361</ele>
        <time>2019-03-11T15:14:26Z</time>
      </trkpt>
      <trkpt lat="43.86953" lon="2.19152">
        <ele>363</ele>
        <time>2019-03-11T15:14:37Z</time>
      </trkpt>
      <trkpt lat="43.86943" lon="2.19157">
        <ele>364</ele>
        <time>2019-03-11T15:14:47Z</time>
      </trkpt>
      <trkpt lat="43.86935" lon="2.1916">
        <ele>365</ele>
        <time>2019-03-11T15:14:54Z</time>
      </trkpt>
      <trkpt lat="43.86926" lon="2.19165">
        <ele>364</ele>
        <time>2019-03-11T15:15:03Z</time>
      </trkpt>
      <trkpt lat="43.86917" lon="2.19169">
        <ele>364</ele>
        <time>2019-03-11T15:15:11Z</time>
      </trkpt>
      <trkpt lat="43.86908" lon="2.1917">
        <ele>364</ele>
        <time>2019-03-11T15:15:20Z</time>
      </trkpt>
      <trkpt lat="43.86899" lon="2.19174">
        <ele>364</ele>
        <time>2019-03-11T15:15:28Z</time>
      </trkpt>
      <trkpt lat="43.86892" lon="2.19176">
        <ele>364</ele>
        <time>2019-03-11T15:15:40Z</time>
      </trkpt>
      <trkpt lat="43.86892" lon="2.19176">
        <ele>364</ele>
        <time>2019-03-11T15:15:40Z</time>
      </trkpt>
      <trkpt lat="43.86881" lon="2.19172">
        <ele>363</ele>
        <time>2019-03-11T15:15:51Z</time>
      </trkpt>
      <trkpt lat="43.86871" lon="2.19175">
        <ele>363</ele>
        <time>2019-03-11T15:16:07Z</time>
      </trkpt>
      <trkpt lat="43.86862" lon="2.19172">
        <ele>364</ele>
        <time>2019-03-11T15:16:16Z</time>
      </trkpt>
      <trkpt lat="43.86852" lon="2.19168">
        <ele>365</ele>
        <time>2019-03-11T15:16:23Z</time>
      </trkpt>
      <trkpt lat="43.86842" lon="2.19166">
        <ele>364</ele>
        <time>2019-03-11T15:16:34Z</time>
      </trkpt>
      <trkpt lat="43.86832" lon="2.19164">
        <ele>362</ele>
        <time>2019-03-11T15:16:47Z</time>
      </trkpt>
      <trkpt lat="43.86823" lon="2.19163">
        <ele>360</ele>
        <time>2019-03-11T15:16:58Z</time>
      </trkpt>
      <trkpt lat="43.86814" lon="2.19164">
        <ele>360</ele>
        <time>2019-03-11T15:17:08Z</time>
      </trkpt>
      <trkpt lat="43.86804" lon="2.19163">
        <ele>359</ele>
        <time>2019-03-11T15:17:18Z</time>
      </trkpt>
      <trkpt lat="43.86795" lon="2.19169">
        <ele>357</ele>
        <time>2019-03-11T15:17:28Z</time>
      </trkpt>
      <trkpt lat="43.86785" lon="2.19166">
        <ele>355</ele>
        <time>2019-03-11T15:17:36Z</time>
      </trkpt>
      <trkpt lat="43.86775" lon="2.19162">
        <ele>357</ele>
        <time>2019-03-11T15:17:45Z</time>
      </trkpt>
      <trkpt lat="43.86765" lon="2.19161">
        <ele>357</ele>
        <time>2019-03-11T15:17:53Z</time>
      </trkpt>
      <trkpt lat="43.86757" lon="2.19154">
        <ele>357</ele>
        <time>2019-03-11T15:18:05Z</time>
      </trkpt>
      <trkpt lat="43.86749" lon="2.19147">
        <ele>357</ele>
        <time>2019-03-11T15:18:13Z</time>
      </trkpt>
      <trkpt lat="43.86742" lon="2.1914">
        <ele>359</ele>
        <time>2019-03-11T15:18:22Z</time>
      </trkpt>
      <trkpt lat="43.86742" lon="2.19127">
        <ele>358</ele>
        <time>2019-03-11T15:18:33Z</time>
      </trkpt>
      <trkpt lat="43.86745" lon="2.19114">
        <ele>358</ele>
        <time>2019-03-11T15:18:44Z</time>
      </trkpt>
      <trkpt lat="43.86745" lon="2.191">
        <ele>357</ele>
        <time>2019-03-11T15:18:53Z</time>
      </trkpt>
      <trkpt lat="43.86742" lon="2.19087">
        <ele>357</ele>
        <time>2019-03-11T15:19:01Z</time>
      </trkpt>
      <trkpt lat="43.86739" lon="2.19075">
        <ele>357</ele>
        <time>2019-03-11T15:19:09Z</time>
      </trkpt>
      <trkpt lat="43.86737" lon="2.19062">
        <ele>358</ele>
        <time>2019-03-11T15:19:17Z</time>
      </trkpt>
      <trkpt lat="43.86736" lon="2.1905">
        <ele>359</ele>
        <time>2019-03-11T15:19:25Z</time>
      </trkpt>
      <trkpt lat="43.86733" lon="2.19038">
        <ele>361</ele>
        <time>2019-03-11T15:19:36Z</time>
      </trkpt>
      <trkpt lat="43.86728" lon="2.19026">
        <ele>359</ele>
        <time>2019-03-11T15:19:45Z</time>
      </trkpt>
      <trkpt lat="43.86726" lon="2.19013">
        <ele>360</ele>
        <time>2019-03-11T15:19:53Z</time>
      </trkpt>
      <trkpt lat="43.86725" lon="2.19">
        <ele>361</ele>
        <time>2019-03-11T15:20:01Z</time>
      </trkpt>
      <trkpt lat="43.86722" lon="2.18988">
        <ele>361</ele>
        <time>2019-03-11T15:20:10Z</time>
      </trkpt>
      <trkpt lat="43.86716" lon="2.18977">
        <ele>361</ele>
        <time>2019-03-11T15:20:19Z</time>
      </trkpt>
      <trkpt lat="43.86707" lon="2.1898">
        <ele>359</ele>
        <time>2019-03-11T15:20:27Z</time>
      </trkpt>
      <trkpt lat="43.86706" lon="2.18993">
        <ele>361</ele>
        <time>2019-03-11T15:20:43Z</time>
      </trkpt>
      <trkpt lat="43.86706" lon="2.19001">
        <ele>358</ele>
        <time>2019-03-11T15:20:54Z</time>
      </trkpt>
      <trkpt lat="43.86706" lon="2.19001">
        <ele>358</ele>
        <time>2019-03-11T15:20:54Z</time>
      </trkpt>
      <trkpt lat="43.86705" lon="2.19014">
        <ele>367</ele>
        <time>2019-03-11T15:21:27Z</time>
      </trkpt>
      <trkpt lat="43.86708" lon="2.19024">
        <ele>370</ele>
        <time>2019-03-11T15:21:40Z</time>
      </trkpt>
      <trkpt lat="43.86708" lon="2.19024">
        <ele>370</ele>
        <time>2019-03-11T15:21:40Z</time>
      </trkpt>
      <trkpt lat="43.86709" lon="2.19011">
        <ele>370</ele>
        <time>2019-03-11T15:22:10Z</time>
      </trkpt>
      <trkpt lat="43.86702" lon="2.19002">
        <ele>372</ele>
        <time>2019-03-11T15:22:19Z</time>
      </trkpt>
      <trkpt lat="43.86693" lon="2.1901">
        <ele>372</ele>
        <time>2019-03-11T15:22:25Z</time>
      </trkpt>
      <trkpt lat="43.86686" lon="2.1902">
        <ele>373</ele>
        <time>2019-03-11T15:22:30Z</time>
      </trkpt>
      <trkpt lat="43.8668" lon="2.19014">
        <ele>376</ele>
        <time>2019-03-11T15:22:47Z</time>
      </trkpt>
      <trkpt lat="43.8668" lon="2.19014">
        <ele>376</ele>
        <time>2019-03-11T15:22:47Z</time>
      </trkpt>
      <trkpt lat="43.8668" lon="2.19008">
        <ele>377</ele>
        <time>2019-03-11T15:22:58Z</time>
      </trkpt>
      <trkpt lat="43.8668" lon="2.19008">
        <ele>377</ele>
        <time>2019-03-11T15:22:58Z</time>
      </trkpt>
      <trkpt lat="43.86668" lon="2.19008">
        <ele>378</ele>
        <time>2019-03-11T15:23:07Z</time>
      </trkpt>
      <trkpt lat="43.86675" lon="2.19016">
        <ele>378</ele>
        <time>2019-03-11T15:23:17Z</time>
      </trkpt>
      <trkpt lat="43.86675" lon="2.19029">
        <ele>377</ele>
        <time>2019-03-11T15:23:21Z</time>
      </trkpt>
      <trkpt lat="43.86674" lon="2.19029">
        <ele>380</ele>
        <time>2019-03-11T15:23:31Z</time>
      </trkpt>
      <trkpt lat="43.86674" lon="2.19029">
        <ele>380</ele>
        <time>2019-03-11T15:23:31Z</time>
      </trkpt>
      <trkpt lat="43.8668" lon="2.19039">
        <ele>379</ele>
        <time>2019-03-11T15:23:50Z</time>
      </trkpt>
      <trkpt lat="43.86681" lon="2.1904">
        <ele>378</ele>
        <time>2019-03-11T15:23:51Z</time>
      </trkpt>
      <trkpt lat="43.86687" lon="2.19051">
        <ele>378</ele>
        <time>2019-03-11T15:23:56Z</time>
      </trkpt>
      <trkpt lat="43.86678" lon="2.19058">
        <ele>375</ele>
        <time>2019-03-11T15:24:04Z</time>
      </trkpt>
      <trkpt lat="43.86674" lon="2.19054">
        <ele>374</ele>
        <time>2019-03-11T15:24:07Z</time>
      </trkpt>
      <trkpt lat="43.86674" lon="2.19054">
        <ele>374</ele>
        <time>2019-03-11T15:24:07Z</time>
      </trkpt>
      <trkpt lat="43.86678" lon="2.19066">
        <ele>374</ele>
        <time>2019-03-11T15:24:22Z</time>
      </trkpt>
      <trkpt lat="43.86678" lon="2.19066">
        <ele>374</ele>
        <time>2019-03-11T15:24:27Z</time>
      </trkpt>
      <trkpt lat="43.86678" lon="2.19066">
        <ele>374</ele>
        <time>2019-03-11T15:24:27Z</time>
      </trkpt>
      <trkpt lat="43.86688" lon="2.19067">
        <ele>374</ele>
        <time>2019-03-11T15:24:39Z</time>
      </trkpt>
      <trkpt lat="43.86697" lon="2.19069">
        <ele>370</ele>
        <time>2019-03-11T15:24:54Z</time>
      </trkpt>
      <trkpt lat="43.867" lon="2.19075">
        <ele>366</ele>
        <time>2019-03-11T15:25:07Z</time>
      </trkpt>
      <trkpt lat="43.867" lon="2.19075">
        <ele>366</ele>
        <time>2019-03-11T15:25:07Z</time>
      </trkpt>
      <trkpt lat="43.867" lon="2.19067">
        <ele>363</ele>
        <time>2019-03-11T15:25:22Z</time>
      </trkpt>
      <trkpt lat="43.867" lon="2.19067">
        <ele>363</ele>
        <time>2019-03-11T15:25:22Z</time>
      </trkpt>
      <trkpt lat="43.86699" lon="2.19073">
        <ele>363</ele>
        <time>2019-03-11T15:25:43Z</time>
      </trkpt>
      <trkpt lat="43.86699" lon="2.19073">
        <ele>363</ele>
        <time>2019-03-11T15:25:43Z</time>
      </trkpt>
      <trkpt lat="43.86705" lon="2.19078">
        <ele>365</ele>
        <time>2019-03-11T15:26:16Z</time>
      </trkpt>
      <trkpt lat="43.86705" lon="2.19078">
        <ele>365</ele>
        <time>2019-03-11T15:26:16Z</time>
      </trkpt>
      <trkpt lat="43.86697" lon="2.19086">
        <ele>368</ele>
        <time>2019-03-11T15:26:40Z</time>
      </trkpt>
      <trkpt lat="43.86696" lon="2.19089">
        <ele>367</ele>
        <time>2019-03-11T15:26:43Z</time>
      </trkpt>
      <trkpt lat="43.86696" lon="2.19089">
        <ele>367</ele>
        <time>2019-03-11T15:26:43Z</time>
      </trkpt>
      <trkpt lat="43.86712" lon="2.1907">
        <ele>370</ele>
        <time>2019-03-11T15:28:26Z</time>
      </trkpt>
      <trkpt lat="43.86713" lon="2.19077">
        <ele>370</ele>
        <time>2019-03-11T15:28:34Z</time>
      </trkpt>
      <trkpt lat="43.86713" lon="2.19077">
        <ele>370</ele>
        <time>2019-03-11T15:28:34Z</time>
      </trkpt>
      <trkpt lat="43.86708" lon="2.19066">
        <ele>372</ele>
        <time>2019-03-11T15:31:13Z</time>
      </trkpt>
      <trkpt lat="43.86703" lon="2.19066">
        <ele>373</ele>
        <time>2019-03-11T15:31:24Z</time>
      </trkpt>
      <trkpt lat="43.86703" lon="2.19066">
        <ele>373</ele>
        <time>2019-03-11T15:31:24Z</time>
      </trkpt>
      <trkpt lat="43.86706" lon="2.19059">
        <ele>375</ele>
        <time>2019-03-11T15:32:13Z</time>
      </trkpt>
      <trkpt lat="43.86706" lon="2.19059">
        <ele>375</ele>
        <time>2019-03-11T15:32:13Z</time>
      </trkpt>
      <trkpt lat="43.86711" lon="2.19068">
        <ele>371</ele>
        <time>2019-03-11T15:33:27Z</time>
      </trkpt>
      <trkpt lat="43.86711" lon="2.19068">
        <ele>371</ele>
        <time>2019-03-11T15:33:27Z</time>
      </trkpt>
      <trkpt lat="43.86708" lon="2.19059">
        <ele>368</ele>
        <time>2019-03-11T15:33:53Z</time>
      </trkpt>
      <trkpt lat="43.86708" lon="2.19059">
        <ele>368</ele>
        <time>2019-03-11T15:33:53Z</time>
      </trkpt>
      <trkpt lat="43.86708" lon="2.19061">
        <ele>369</ele>
        <time>2019-03-11T15:34:13Z</time>
      </trkpt>
      <trkpt lat="43.86708" lon="2.19061">
        <ele>369</ele>
        <time>2019-03-11T15:34:13Z</time>
      </trkpt>
      <trkpt lat="43.86707" lon="2.19061">
        <ele>372</ele>
        <time>2019-03-11T15:34:24Z</time>
      </trkpt>
      <trkpt lat="43.86707" lon="2.19061">
        <ele>372</ele>
        <time>2019-03-11T15:34:24Z</time>
      </trkpt>
      <trkpt lat="43.8671" lon="2.1906">
        <ele>371</ele>
        <time>2019-03-11T15:34:33Z</time>
      </trkpt>
      <trkpt lat="43.8671" lon="2.1906">
        <ele>371</ele>
        <time>2019-03-11T15:34:33Z</time>
      </trkpt>
      <trkpt lat="43.86708" lon="2.19047">
        <ele>371</ele>
        <time>2019-03-11T15:34:54Z</time>
      </trkpt>
      <trkpt lat="43.86709" lon="2.19033">
        <ele>372</ele>
        <time>2019-03-11T15:35:04Z</time>
      </trkpt>
      <trkpt lat="43.86712" lon="2.1902">
        <ele>373</ele>
        <time>2019-03-11T15:35:15Z</time>
      </trkpt>
      <trkpt lat="43.86715" lon="2.19008">
        <ele>373</ele>
        <time>2019-03-11T15:35:25Z</time>
      </trkpt>
      <trkpt lat="43.8671" lon="2.18995">
        <ele>372</ele>
        <time>2019-03-11T15:35:34Z</time>
      </trkpt>
      <trkpt lat="43.86706" lon="2.18983">
        <ele>373</ele>
        <time>2019-03-11T15:35:48Z</time>
      </trkpt>
      <trkpt lat="43.86702" lon="2.18971">
        <ele>372</ele>
        <time>2019-03-11T15:35:57Z</time>
      </trkpt>
      <trkpt lat="43.86696" lon="2.18961">
        <ele>374</ele>
        <time>2019-03-11T15:36:08Z</time>
      </trkpt>
      <trkpt lat="43.86687" lon="2.1896">
        <ele>372</ele>
        <time>2019-03-11T15:36:17Z</time>
      </trkpt>
      <trkpt lat="43.86677" lon="2.18963">
        <ele>371</ele>
        <time>2019-03-11T15:36:26Z</time>
      </trkpt>
      <trkpt lat="43.86673" lon="2.18968">
        <ele>371</ele>
        <time>2019-03-11T15:36:39Z</time>
      </trkpt>
      <trkpt lat="43.86673" lon="2.18968">
        <ele>371</ele>
        <time>2019-03-11T15:36:39Z</time>
      </trkpt>
      <trkpt lat="43.86682" lon="2.18967">
        <ele>360</ele>
        <time>2019-03-11T15:38:59Z</time>
      </trkpt>
      <trkpt lat="43.86692" lon="2.18967">
        <ele>359</ele>
        <time>2019-03-11T15:39:12Z</time>
      </trkpt>
      <trkpt lat="43.86699" lon="2.18974">
        <ele>361</ele>
        <time>2019-03-11T15:39:24Z</time>
      </trkpt>
      <trkpt lat="43.86702" lon="2.18986">
        <ele>361</ele>
        <time>2019-03-11T15:39:36Z</time>
      </trkpt>
      <trkpt lat="43.86704" lon="2.18999">
        <ele>361</ele>
        <time>2019-03-11T15:39:49Z</time>
      </trkpt>
      <trkpt lat="43.86705" lon="2.19003">
        <ele>362</ele>
        <time>2019-03-11T15:39:57Z</time>
      </trkpt>
      <trkpt lat="43.86705" lon="2.19003">
        <ele>362</ele>
        <time>2019-03-11T15:39:57Z</time>
      </trkpt>
      <trkpt lat="43.86707" lon="2.19016">
        <ele>363</ele>
        <time>2019-03-11T15:40:09Z</time>
      </trkpt>
      <trkpt lat="43.86707" lon="2.1903">
        <ele>364</ele>
        <time>2019-03-11T15:40:18Z</time>
      </trkpt>
      <trkpt lat="43.86708" lon="2.19044">
        <ele>363</ele>
        <time>2019-03-11T15:40:31Z</time>
      </trkpt>
      <trkpt lat="43.86707" lon="2.19057">
        <ele>363</ele>
        <time>2019-03-11T15:40:42Z</time>
      </trkpt>
      <trkpt lat="43.86708" lon="2.19069">
        <ele>362</ele>
        <time>2019-03-11T15:40:53Z</time>
      </trkpt>
      <trkpt lat="43.86712" lon="2.19081">
        <ele>360</ele>
        <time>2019-03-11T15:41:05Z</time>
      </trkpt>
      <trkpt lat="43.86721" lon="2.19085">
        <ele>360</ele>
        <time>2019-03-11T15:41:14Z</time>
      </trkpt>
      <trkpt lat="43.86725" lon="2.19097">
        <ele>359</ele>
        <time>2019-03-11T15:41:26Z</time>
      </trkpt>
      <trkpt lat="43.86721" lon="2.19109">
        <ele>360</ele>
        <time>2019-03-11T15:41:38Z</time>
      </trkpt>
      <trkpt lat="43.86721" lon="2.19114">
        <ele>362</ele>
        <time>2019-03-11T15:41:49Z</time>
      </trkpt>
      <trkpt lat="43.86721" lon="2.19114">
        <ele>362</ele>
        <time>2019-03-11T15:41:49Z</time>
      </trkpt>
      <trkpt lat="43.86719" lon="2.19124">
        <ele>361</ele>
        <time>2019-03-11T15:42:16Z</time>
      </trkpt>
      <trkpt lat="43.86719" lon="2.19124">
        <ele>361</ele>
        <time>2019-03-11T15:42:16Z</time>
      </trkpt>
      <trkpt lat="43.86728" lon="2.19128">
        <ele>359</ele>
        <time>2019-03-11T15:43:05Z</time>
      </trkpt>
      <trkpt lat="43.86733" lon="2.19138">
        <ele>356</ele>
        <time>2019-03-11T15:43:16Z</time>
      </trkpt>
      <trkpt lat="43.86735" lon="2.19147">
        <ele>354</ele>
        <time>2019-03-11T15:43:30Z</time>
      </trkpt>
      <trkpt lat="43.86735" lon="2.19147">
        <ele>354</ele>
        <time>2019-03-11T15:43:30Z</time>
      </trkpt>
      <trkpt lat="43.86739" lon="2.19158">
        <ele>354</ele>
        <time>2019-03-11T15:43:45Z</time>
      </trkpt>
      <trkpt lat="43.86739" lon="2.19158">
        <ele>354</ele>
        <time>2019-03-11T15:43:45Z</time>
      </trkpt>
      <trkpt lat="43.86742" lon="2.19165">
        <ele>354</ele>
        <time>2019-03-11T15:43:57Z</time>
      </trkpt>
      <trkpt lat="43.86742" lon="2.19165">
        <ele>354</ele>
        <time>2019-03-11T15:43:57Z</time>
      </trkpt>
    </trkseg>
  </trk>
</gpx>